BAW61 EGLL-VRMM
Flight info
| Callsign | BAW61 |
|---|---|
| Flight time | N/A |
| Altitude | 33000 |
| Route | DET L6 DVR L9 KONAN UL607 FERDI DCT LIRSU DCT LALMI DCT ABTAL DCT LATLO DCT OBEDI DCT TEBLI DCT BOSNA/N0485F350 DCT MAVAR DCT BITLA DCT AKINA DCT VANZA DCT LAKTO L560 SERMA L550 KARIK B411 DEESA Y415 NIMAR G662 EGVOP/N0493F370 G662 KSA M321 RESAL T533 RAPMA DCT DEGNO DCT DAPOL L692 GISKA N569 GOLNI P570 KITAL L894 DONSA/N0489F390 L894 ELBET ELBET1A |
| Aircraft | A35K/H-SDE2E3GHIJ3J4J5LM1ORWXY/LB1D1 |
Departure
| Time | N/A |
|---|---|
| Airport | London Heathrow Airport (EGLL) |
Arrival
| Time | 2026-05-07 10:09 |
|---|---|
| Airport | Velana International Airport (VRMM) |
| Time | Latitude | Longitude | Altitude | Speed | Heading |
|---|---|---|---|---|---|
| 2026-05-07 00:16 | 51.36197 | 0.19158 | 6044 ft | 269 kts | 103° |
| 2026-05-07 00:17 | 51.35794 | 0.22041 | 6040 ft | 269 kts | 103° |
| 2026-05-07 00:17 | 51.35379 | 0.24965 | 6048 ft | 269 kts | 103° |
| 2026-05-07 00:17 | 51.34963 | 0.27885 | 6042 ft | 269 kts | 103° |
| 2026-05-07 00:17 | 51.34548 | 0.30804 | 6045 ft | 269 kts | 103° |
| 2026-05-07 00:18 | 51.34131 | 0.33731 | 6051 ft | 269 kts | 103° |
| 2026-05-07 00:18 | 51.33715 | 0.36650 | 6048 ft | 269 kts | 103° |
| 2026-05-07 00:18 | 51.33299 | 0.39565 | 6047 ft | 270 kts | 103° |
| 2026-05-07 00:18 | 51.32879 | 0.42497 | 6040 ft | 270 kts | 103° |
| 2026-05-07 00:19 | 51.32460 | 0.45426 | 5956 ft | 270 kts | 103° |
| 2026-05-07 00:19 | 51.32042 | 0.48350 | 5958 ft | 270 kts | 103° |
| 2026-05-07 00:19 | 51.31620 | 0.51283 | 5958 ft | 270 kts | 103° |
| 2026-05-07 00:19 | 51.31198 | 0.54210 | 5963 ft | 270 kts | 103° |
| 2026-05-07 00:20 | 51.30776 | 0.57135 | 5966 ft | 270 kts | 103° |
| 2026-05-07 00:20 | 51.30353 | 0.60059 | 5968 ft | 270 kts | 103° |
| 2026-05-07 00:20 | 51.29900 | 0.62974 | 6144 ft | 271 kts | 105° |
| 2026-05-07 00:20 | 51.29373 | 0.65894 | 6745 ft | 274 kts | 107° |
| 2026-05-07 00:21 | 51.28816 | 0.68812 | 7428 ft | 276 kts | 107° |
| 2026-05-07 00:21 | 51.28246 | 0.71766 | 8099 ft | 280 kts | 107° |
| 2026-05-07 00:21 | 51.27672 | 0.74772 | 8743 ft | 285 kts | 107° |
| 2026-05-07 00:21 | 51.27098 | 0.77818 | 9411 ft | 289 kts | 106° |
| 2026-05-07 00:22 | 51.26520 | 0.80926 | 10061 ft | 294 kts | 106° |
| 2026-05-07 00:22 | 51.25929 | 0.84131 | 10437 ft | 309 kts | 106° |
| 2026-05-07 00:22 | 51.25307 | 0.87517 | 10739 ft | 326 kts | 106° |
| 2026-05-07 00:22 | 51.24652 | 0.91079 | 11024 ft | 343 kts | 106° |
| 2026-05-07 00:23 | 51.23963 | 0.94814 | 11330 ft | 359 kts | 106° |
| 2026-05-07 00:23 | 51.23241 | 0.98714 | 11607 ft | 374 kts | 106° |
| 2026-05-07 00:23 | 51.22488 | 1.02768 | 11892 ft | 388 kts | 106° |
| 2026-05-07 00:23 | 51.21711 | 1.06939 | 12362 ft | 395 kts | 106° |
| 2026-05-07 00:24 | 51.20922 | 1.11161 | 12956 ft | 399 kts | 106° |
| 2026-05-07 00:24 | 51.20124 | 1.15420 | 13557 ft | 403 kts | 106° |
| 2026-05-07 00:24 | 51.19319 | 1.19708 | 14118 ft | 406 kts | 106° |
| 2026-05-07 00:24 | 51.18502 | 1.24056 | 14671 ft | 410 kts | 107° |
| 2026-05-07 00:25 | 51.17680 | 1.28415 | 15194 ft | 413 kts | 107° |
| 2026-05-07 00:25 | 51.16863 | 1.32823 | 15721 ft | 416 kts | 104° |
| 2026-05-07 00:25 | 51.16312 | 1.37369 | 16254 ft | 419 kts | 97° |
| 2026-05-07 00:25 | 51.15960 | 1.41995 | 16787 ft | 422 kts | 95° |
| 2026-05-07 00:26 | 51.15688 | 1.46681 | 17263 ft | 427 kts | 94° |
| 2026-05-07 00:26 | 51.15459 | 1.51423 | 17753 ft | 431 kts | 94° |
| 2026-05-07 00:26 | 51.15246 | 1.56200 | 18343 ft | 433 kts | 94° |
| 2026-05-07 00:26 | 51.15033 | 1.60998 | 18823 ft | 437 kts | 94° |
| 2026-05-07 00:27 | 51.14810 | 1.65855 | 19289 ft | 440 kts | 94° |
| 2026-05-07 00:27 | 51.14580 | 1.70674 | 19817 ft | 443 kts | 94° |
| 2026-05-07 00:27 | 51.14339 | 1.75578 | 20305 ft | 446 kts | 94° |
| 2026-05-07 00:27 | 51.14090 | 1.80525 | 20806 ft | 450 kts | 94° |
| 2026-05-07 00:28 | 51.13836 | 1.85504 | 21326 ft | 452 kts | 95° |
| 2026-05-07 00:28 | 51.13577 | 1.90524 | 21808 ft | 456 kts | 95° |
| 2026-05-07 00:28 | 51.13314 | 1.95567 | 22322 ft | 459 kts | 95° |
| 2026-05-07 00:28 | 51.13048 | 2.00646 | 22814 ft | 462 kts | 95° |
| 2026-05-07 00:29 | 51.12782 | 2.05753 | 23299 ft | 466 kts | 95° |
| 2026-05-07 00:29 | 51.12508 | 2.10924 | 23748 ft | 469 kts | 95° |
| 2026-05-07 00:30 | 51.11657 | 2.26586 | 25000 ft | 477 kts | 95° |
| 2026-05-07 00:30 | 51.11366 | 2.31860 | 25408 ft | 480 kts | 95° |
| 2026-05-07 00:30 | 51.11071 | 2.37169 | 25821 ft | 482 kts | 95° |
| 2026-05-07 00:30 | 51.10772 | 2.42503 | 26276 ft | 484 kts | 95° |
| 2026-05-07 00:31 | 51.10471 | 2.47847 | 26681 ft | 486 kts | 95° |
| 2026-05-07 00:31 | 51.10166 | 2.53223 | 27067 ft | 489 kts | 95° |
| 2026-05-07 00:31 | 51.09857 | 2.58620 | 27448 ft | 491 kts | 95° |
| 2026-05-07 00:31 | 51.09445 | 2.64027 | 27812 ft | 494 kts | 100° |
| 2026-05-07 00:32 | 51.08682 | 2.69373 | 28169 ft | 496 kts | 104° |
| 2026-05-07 00:32 | 51.07798 | 2.74685 | 28521 ft | 499 kts | 105° |
| 2026-05-07 00:32 | 51.06853 | 2.80007 | 28865 ft | 501 kts | 106° |
| 2026-05-07 00:32 | 51.05895 | 2.85238 | 29322 ft | 499 kts | 107° |
| 2026-05-07 00:33 | 51.04902 | 2.90597 | 29907 ft | 497 kts | 107° |
| 2026-05-07 00:33 | 51.03927 | 2.95851 | 30338 ft | 496 kts | 107° |
| 2026-05-07 00:33 | 51.02954 | 3.01106 | 30684 ft | 495 kts | 106° |
| 2026-05-07 00:33 | 51.01995 | 3.06288 | 31025 ft | 495 kts | 106° |
| 2026-05-07 00:34 | 51.01027 | 3.11529 | 31361 ft | 495 kts | 106° |
| 2026-05-07 00:34 | 51.00060 | 3.16759 | 31694 ft | 494 kts | 106° |
| 2026-05-07 00:34 | 50.99089 | 3.22004 | 32024 ft | 494 kts | 106° |
| 2026-05-07 00:34 | 50.98119 | 3.27230 | 32332 ft | 493 kts | 106° |
| 2026-05-07 00:35 | 50.97148 | 3.32442 | 32635 ft | 492 kts | 106° |
| 2026-05-07 00:35 | 50.96172 | 3.37663 | 32947 ft | 492 kts | 106° |
| 2026-05-07 00:35 | 50.94203 | 3.48163 | 32988 ft | 498 kts | 106° |
| 2026-05-07 00:36 | 50.92219 | 3.58682 | 32982 ft | 498 kts | 106° |
| 2026-05-07 00:36 | 50.90152 | 3.69152 | 32989 ft | 498 kts | 109° |
| 2026-05-07 00:37 | 50.87640 | 3.79361 | 32990 ft | 498 kts | 112° |
| 2026-05-07 00:37 | 50.85038 | 3.89510 | 32988 ft | 497 kts | 111° |
| 2026-05-07 00:38 | 50.82486 | 3.99691 | 32987 ft | 497 kts | 111° |
| 2026-05-07 00:38 | 50.80378 | 4.08221 | 32985 ft | 497 kts | 111° |
| 2026-05-07 00:39 | 50.77881 | 4.18332 | 32990 ft | 496 kts | 111° |
| 2026-05-07 00:39 | 50.75363 | 4.28476 | 32992 ft | 495 kts | 111° |
| 2026-05-07 00:40 | 50.72831 | 4.38624 | 32991 ft | 495 kts | 111° |
| 2026-05-07 00:40 | 50.70297 | 4.48728 | 32989 ft | 495 kts | 111° |
| 2026-05-07 00:41 | 50.67752 | 4.58827 | 32993 ft | 495 kts | 111° |
| 2026-05-07 00:41 | 50.65212 | 4.68867 | 32983 ft | 495 kts | 111° |
| 2026-05-07 00:42 | 50.62654 | 4.78928 | 32986 ft | 494 kts | 111° |
| 2026-05-07 00:42 | 50.60089 | 4.88968 | 32982 ft | 494 kts | 111° |
| 2026-05-07 00:43 | 50.57516 | 4.99002 | 32983 ft | 494 kts | 111° |
| 2026-05-07 00:43 | 50.54933 | 5.09025 | 32978 ft | 494 kts | 112° |
| 2026-05-07 00:44 | 50.52342 | 5.19040 | 32978 ft | 494 kts | 112° |
| 2026-05-07 00:44 | 50.49742 | 5.29042 | 32979 ft | 494 kts | 112° |
| 2026-05-07 00:45 | 50.47136 | 5.39024 | 32969 ft | 494 kts | 112° |
| 2026-05-07 00:45 | 50.44517 | 5.49010 | 32972 ft | 494 kts | 112° |
| 2026-05-07 00:46 | 50.41893 | 5.58975 | 32968 ft | 494 kts | 112° |
| 2026-05-07 00:46 | 50.39277 | 5.68866 | 32974 ft | 494 kts | 112° |
| 2026-05-07 00:47 | 50.36638 | 5.78798 | 32949 ft | 494 kts | 112° |
| 2026-05-07 00:47 | 50.33987 | 5.88738 | 32951 ft | 494 kts | 112° |
| 2026-05-07 00:48 | 50.31324 | 5.98674 | 32949 ft | 494 kts | 112° |
| 2026-05-07 00:48 | 50.28659 | 6.08583 | 32940 ft | 493 kts | 113° |
| 2026-05-07 00:49 | 50.25986 | 6.18474 | 32940 ft | 494 kts | 113° |
| 2026-05-07 00:49 | 50.23301 | 6.28366 | 32926 ft | 494 kts | 113° |
| 2026-05-07 00:50 | 50.20626 | 6.38182 | 32918 ft | 494 kts | 113° |
| 2026-05-07 00:50 | 50.17912 | 6.48044 | 32910 ft | 494 kts | 115° |
| 2026-05-07 00:51 | 50.14764 | 6.57597 | 32914 ft | 495 kts | 119° |
| 2026-05-07 00:51 | 50.11431 | 6.66983 | 32903 ft | 494 kts | 120° |
| 2026-05-07 00:52 | 50.08144 | 6.76394 | 32902 ft | 495 kts | 118° |
| 2026-05-07 00:52 | 50.04900 | 6.85840 | 32899 ft | 495 kts | 118° |
| 2026-05-07 00:53 | 50.01689 | 6.95217 | 32910 ft | 493 kts | 118° |
| 2026-05-07 00:53 | 49.98453 | 7.04629 | 32915 ft | 493 kts | 118° |
| 2026-05-07 00:54 | 49.95190 | 7.14076 | 32906 ft | 493 kts | 119° |
| 2026-05-07 00:54 | 49.91939 | 7.23450 | 32904 ft | 493 kts | 119° |
| 2026-05-07 00:55 | 49.88678 | 7.32820 | 32904 ft | 493 kts | 119° |
| 2026-05-07 00:55 | 49.85431 | 7.42111 | 32903 ft | 492 kts | 119° |
| 2026-05-07 00:56 | 49.82160 | 7.51438 | 32909 ft | 493 kts | 119° |
| 2026-05-07 00:56 | 49.78875 | 7.60771 | 32909 ft | 493 kts | 119° |
| 2026-05-07 00:57 | 49.75589 | 7.70078 | 32906 ft | 493 kts | 120° |
| 2026-05-07 00:57 | 49.72304 | 7.79346 | 32905 ft | 491 kts | 120° |
| 2026-05-07 00:58 | 49.69011 | 7.88602 | 32906 ft | 491 kts | 120° |
| 2026-05-07 00:58 | 49.65714 | 7.97835 | 32906 ft | 491 kts | 120° |
| 2026-05-07 00:59 | 49.60759 | 8.11653 | 32900 ft | 491 kts | 120° |
| 2026-05-07 01:00 | 49.57439 | 8.20869 | 32912 ft | 492 kts | 120° |
| 2026-05-07 01:00 | 49.54105 | 8.30089 | 32908 ft | 492 kts | 120° |
| 2026-05-07 01:01 | 49.50762 | 8.39304 | 32908 ft | 492 kts | 120° |
| 2026-05-07 01:01 | 49.47413 | 8.48500 | 32911 ft | 492 kts | 120° |
| 2026-05-07 01:02 | 49.44058 | 8.57683 | 32911 ft | 492 kts | 120° |
| 2026-05-07 01:02 | 49.40698 | 8.66848 | 32910 ft | 492 kts | 120° |
| 2026-05-07 01:03 | 49.37330 | 8.76000 | 32907 ft | 492 kts | 120° |
| 2026-05-07 01:03 | 49.33956 | 8.85137 | 32906 ft | 492 kts | 121° |
| 2026-05-07 01:04 | 49.30535 | 8.94225 | 32894 ft | 491 kts | 121° |
| 2026-05-07 01:04 | 49.27098 | 9.03254 | 32894 ft | 490 kts | 121° |
| 2026-05-07 01:05 | 49.23657 | 9.12277 | 32892 ft | 490 kts | 121° |
| 2026-05-07 01:05 | 49.20219 | 9.21283 | 32891 ft | 490 kts | 122° |
| 2026-05-07 01:06 | 49.16792 | 9.30237 | 32887 ft | 490 kts | 122° |
| 2026-05-07 01:06 | 49.13339 | 9.39230 | 32889 ft | 492 kts | 122° |
| 2026-05-07 01:07 | 49.09865 | 9.48245 | 32887 ft | 493 kts | 122° |
| 2026-05-07 01:07 | 49.06380 | 9.57256 | 32886 ft | 493 kts | 122° |
| 2026-05-07 01:08 | 49.02886 | 9.66260 | 32884 ft | 493 kts | 122° |
| 2026-05-07 01:08 | 48.99388 | 9.75244 | 32883 ft | 494 kts | 123° |
| 2026-05-07 01:09 | 48.95872 | 9.84242 | 32884 ft | 494 kts | 123° |
| 2026-05-07 01:09 | 48.92348 | 9.93231 | 32892 ft | 494 kts | 123° |
| 2026-05-07 01:10 | 48.88816 | 10.02209 | 32895 ft | 494 kts | 123° |
| 2026-05-07 01:10 | 48.85284 | 10.11163 | 32881 ft | 494 kts | 124° |
| 2026-05-07 01:11 | 48.81699 | 10.19983 | 32921 ft | 494 kts | 126° |
| 2026-05-07 01:11 | 48.78021 | 10.28776 | 32925 ft | 494 kts | 126° |
| 2026-05-07 01:12 | 48.74342 | 10.37564 | 32935 ft | 494 kts | 126° |
| 2026-05-07 01:12 | 48.70644 | 10.46412 | 32933 ft | 494 kts | 126° |
| 2026-05-07 01:13 | 48.66996 | 10.55133 | 32935 ft | 491 kts | 127° |
| 2026-05-07 01:13 | 48.63340 | 10.63840 | 32938 ft | 489 kts | 127° |
| 2026-05-07 01:14 | 48.59684 | 10.72516 | 32943 ft | 489 kts | 127° |
| 2026-05-07 01:14 | 48.56020 | 10.81185 | 32932 ft | 490 kts | 127° |
| 2026-05-07 01:15 | 48.52338 | 10.89871 | 32929 ft | 492 kts | 128° |
| 2026-05-07 01:15 | 48.48648 | 10.98547 | 32912 ft | 491 kts | 128° |
| 2026-05-07 01:16 | 48.44950 | 11.07213 | 32911 ft | 491 kts | 128° |
| 2026-05-07 01:16 | 48.41246 | 11.15861 | 32914 ft | 491 kts | 128° |
| 2026-05-07 01:17 | 48.37539 | 11.24493 | 32921 ft | 491 kts | 128° |
| 2026-05-07 01:17 | 48.34447 | 11.31675 | 32927 ft | 491 kts | 128° |
| 2026-05-07 01:18 | 48.30698 | 11.40351 | 32928 ft | 491 kts | 128° |
| 2026-05-07 01:18 | 48.26971 | 11.48952 | 32915 ft | 491 kts | 128° |
| 2026-05-07 01:19 | 48.23237 | 11.57541 | 32913 ft | 491 kts | 128° |
| 2026-05-07 01:19 | 48.19497 | 11.66118 | 32922 ft | 490 kts | 129° |
| 2026-05-07 01:20 | 48.15790 | 11.74592 | 32917 ft | 489 kts | 129° |
| 2026-05-07 01:20 | 48.12054 | 11.83102 | 32923 ft | 489 kts | 129° |
| 2026-05-07 01:21 | 48.08316 | 11.91591 | 32905 ft | 489 kts | 129° |
| 2026-05-07 01:21 | 48.04567 | 12.00081 | 32895 ft | 488 kts | 129° |
| 2026-05-07 01:22 | 48.00809 | 12.08562 | 32927 ft | 489 kts | 130° |
| 2026-05-07 01:22 | 47.97040 | 12.17041 | 32931 ft | 491 kts | 130° |
| 2026-05-07 01:23 | 47.93259 | 12.25524 | 32927 ft | 491 kts | 130° |
| 2026-05-07 01:23 | 47.89469 | 12.34000 | 32935 ft | 491 kts | 130° |
| 2026-05-07 01:24 | 47.85680 | 12.42448 | 32939 ft | 491 kts | 130° |
| 2026-05-07 01:24 | 47.81880 | 12.50894 | 32939 ft | 490 kts | 130° |
| 2026-05-07 01:25 | 47.78075 | 12.59324 | 32938 ft | 490 kts | 130° |
| 2026-05-07 01:25 | 47.74265 | 12.67740 | 32940 ft | 490 kts | 130° |
| 2026-05-07 01:26 | 47.70482 | 12.76078 | 32941 ft | 489 kts | 131° |
| 2026-05-07 01:26 | 47.66249 | 12.83797 | 32934 ft | 478 kts | 140° |
| 2026-05-07 01:27 | 47.61596 | 12.90835 | 32941 ft | 476 kts | 142° |
| 2026-05-07 01:27 | 47.56885 | 12.97742 | 32932 ft | 476 kts | 142° |
| 2026-05-07 01:28 | 47.52168 | 13.04629 | 32899 ft | 477 kts | 142° |
| 2026-05-07 01:28 | 47.47478 | 13.11512 | 32936 ft | 474 kts | 142° |
| 2026-05-07 01:29 | 47.42808 | 13.18363 | 32942 ft | 473 kts | 143° |
| 2026-05-07 01:29 | 47.38140 | 13.25183 | 32946 ft | 472 kts | 143° |
| 2026-05-07 01:30 | 47.33470 | 13.31983 | 32937 ft | 472 kts | 143° |
| 2026-05-07 01:30 | 47.28928 | 13.39001 | 32922 ft | 475 kts | 139° |
| 2026-05-07 01:31 | 47.24610 | 13.46398 | 32943 ft | 476 kts | 138° |
| 2026-05-07 01:31 | 47.20286 | 13.53794 | 32929 ft | 475 kts | 139° |
| 2026-05-07 01:32 | 47.15955 | 13.61047 | 32947 ft | 475 kts | 139° |
| 2026-05-07 01:32 | 47.11541 | 13.68355 | 32948 ft | 475 kts | 140° |
| 2026-05-07 01:33 | 47.07163 | 13.75556 | 32953 ft | 477 kts | 139° |
| 2026-05-07 01:33 | 47.02740 | 13.82830 | 32946 ft | 478 kts | 139° |
| 2026-05-07 01:34 | 46.98311 | 13.90107 | 32946 ft | 478 kts | 139° |
| 2026-05-07 01:34 | 46.93878 | 13.97375 | 32939 ft | 478 kts | 139° |
| 2026-05-07 01:35 | 46.89436 | 14.04633 | 32949 ft | 480 kts | 139° |
| 2026-05-07 01:35 | 46.84932 | 14.11960 | 32946 ft | 486 kts | 139° |
| 2026-05-07 01:36 | 46.80406 | 14.19316 | 32944 ft | 486 kts | 139° |
| 2026-05-07 01:36 | 46.75882 | 14.26652 | 32945 ft | 486 kts | 139° |
| 2026-05-07 01:37 | 46.71377 | 14.33930 | 32940 ft | 486 kts | 139° |
| 2026-05-07 01:37 | 46.66823 | 14.41265 | 32926 ft | 490 kts | 138° |
| 2026-05-07 01:38 | 46.62241 | 14.48629 | 32941 ft | 491 kts | 138° |
| 2026-05-07 01:38 | 46.57656 | 14.55981 | 32938 ft | 490 kts | 138° |
| 2026-05-07 01:39 | 46.53067 | 14.63320 | 32938 ft | 490 kts | 138° |
| 2026-05-07 01:39 | 46.48477 | 14.70637 | 32940 ft | 490 kts | 138° |
| 2026-05-07 01:40 | 46.43885 | 14.77934 | 32938 ft | 489 kts | 138° |
| 2026-05-07 01:40 | 46.39302 | 14.85202 | 32935 ft | 488 kts | 138° |
| 2026-05-07 01:41 | 46.34715 | 14.92458 | 32940 ft | 488 kts | 138° |
| 2026-05-07 01:41 | 46.30125 | 14.99694 | 32934 ft | 488 kts | 138° |
| 2026-05-07 01:42 | 46.25530 | 15.06921 | 32941 ft | 487 kts | 138° |
| 2026-05-07 01:42 | 46.20963 | 15.14084 | 32940 ft | 487 kts | 138° |
| 2026-05-07 01:43 | 46.16378 | 15.21258 | 32947 ft | 486 kts | 138° |
| 2026-05-07 01:43 | 46.11787 | 15.28419 | 32917 ft | 486 kts | 138° |
| 2026-05-07 01:44 | 46.07169 | 15.35601 | 32946 ft | 489 kts | 138° |
| 2026-05-07 01:44 | 46.02539 | 15.42788 | 32945 ft | 490 kts | 138° |
| 2026-05-07 01:45 | 45.97895 | 15.49978 | 32940 ft | 490 kts | 138° |
| 2026-05-07 01:45 | 45.93251 | 15.57150 | 32940 ft | 490 kts | 138° |
| 2026-05-07 01:46 | 45.88600 | 15.64312 | 32922 ft | 490 kts | 139° |
| 2026-05-07 01:46 | 45.83947 | 15.71457 | 32940 ft | 490 kts | 139° |
| 2026-05-07 01:47 | 45.79316 | 15.78550 | 32947 ft | 490 kts | 139° |
| 2026-05-07 01:47 | 45.74643 | 15.85690 | 32951 ft | 490 kts | 139° |
| 2026-05-07 01:48 | 45.69968 | 15.92811 | 32955 ft | 492 kts | 139° |
| 2026-05-07 01:48 | 45.65278 | 15.99938 | 32960 ft | 492 kts | 139° |
| 2026-05-07 01:49 | 45.60577 | 16.07065 | 32960 ft | 492 kts | 139° |
| 2026-05-07 01:49 | 45.55868 | 16.14185 | 32958 ft | 492 kts | 139° |
| 2026-05-07 01:50 | 45.51157 | 16.21288 | 32954 ft | 493 kts | 139° |
| 2026-05-07 01:50 | 45.46466 | 16.28342 | 32959 ft | 493 kts | 139° |
| 2026-05-07 01:51 | 45.41745 | 16.35423 | 32961 ft | 493 kts | 139° |
| 2026-05-07 01:51 | 45.37018 | 16.42496 | 32954 ft | 493 kts | 139° |
| 2026-05-07 01:52 | 45.32282 | 16.49565 | 32971 ft | 493 kts | 139° |
| 2026-05-07 01:52 | 45.27537 | 16.56626 | 32969 ft | 494 kts | 139° |
| 2026-05-07 01:53 | 45.22779 | 16.63688 | 32973 ft | 494 kts | 139° |
| 2026-05-07 01:53 | 45.18030 | 16.70651 | 32969 ft | 493 kts | 141° |
| 2026-05-07 01:54 | 45.13038 | 16.77283 | 32961 ft | 492 kts | 143° |
| 2026-05-07 01:54 | 45.07980 | 16.83819 | 32960 ft | 493 kts | 143° |
| 2026-05-07 01:55 | 45.02944 | 16.90396 | 32962 ft | 493 kts | 143° |
| 2026-05-07 01:55 | 44.97928 | 16.96997 | 32964 ft | 493 kts | 142° |
| 2026-05-07 01:56 | 44.92908 | 17.03606 | 32948 ft | 493 kts | 142° |
| 2026-05-07 01:56 | 44.87863 | 17.10223 | 32965 ft | 496 kts | 142° |
| 2026-05-07 01:57 | 44.82798 | 17.16853 | 32964 ft | 497 kts | 143° |
| 2026-05-07 01:57 | 44.77719 | 17.23482 | 32965 ft | 497 kts | 143° |
| 2026-05-07 01:58 | 44.72671 | 17.30053 | 32961 ft | 497 kts | 143° |
| 2026-05-07 01:58 | 44.67583 | 17.36658 | 32967 ft | 498 kts | 143° |
| 2026-05-07 01:59 | 44.63324 | 17.42180 | 32974 ft | 498 kts | 143° |
| 2026-05-07 01:59 | 44.57403 | 17.49835 | 32982 ft | 498 kts | 143° |
| 2026-05-07 02:00 | 44.53133 | 17.55342 | 32976 ft | 497 kts | 143° |
| 2026-05-07 02:00 | 44.48032 | 17.61908 | 32987 ft | 498 kts | 143° |
| 2026-05-07 02:01 | 44.42921 | 17.68463 | 32994 ft | 499 kts | 143° |
| 2026-05-07 02:01 | 44.37835 | 17.74968 | 33223 ft | 496 kts | 143° |
| 2026-05-07 02:01 | 44.35289 | 17.78170 | 33781 ft | 489 kts | 146° |
| 2026-05-07 02:02 | 44.32669 | 17.81149 | 34224 ft | 483 kts | 148° |
| 2026-05-07 02:02 | 44.30002 | 17.83983 | 34456 ft | 482 kts | 149° |
| 2026-05-07 02:02 | 44.27304 | 17.86779 | 34635 ft | 483 kts | 149° |
| 2026-05-07 02:02 | 44.24609 | 17.89576 | 34885 ft | 482 kts | 149° |
| 2026-05-07 02:03 | 44.21928 | 17.92388 | 34989 ft | 485 kts | 149° |
| 2026-05-07 02:03 | 44.16524 | 17.98141 | 35008 ft | 489 kts | 148° |
| 2026-05-07 02:04 | 44.11139 | 18.03935 | 35011 ft | 488 kts | 148° |
| 2026-05-07 02:04 | 44.05764 | 18.09711 | 35031 ft | 489 kts | 148° |
| 2026-05-07 02:05 | 44.00409 | 18.15444 | 35020 ft | 489 kts | 148° |
| 2026-05-07 02:05 | 43.95016 | 18.21201 | 35030 ft | 489 kts | 148° |
| 2026-05-07 02:06 | 43.89615 | 18.26954 | 35056 ft | 489 kts | 148° |
| 2026-05-07 02:06 | 43.84227 | 18.32680 | 35037 ft | 487 kts | 148° |
| 2026-05-07 02:07 | 43.78838 | 18.38391 | 35054 ft | 487 kts | 148° |
| 2026-05-07 02:07 | 43.70757 | 18.46929 | 35054 ft | 487 kts | 148° |
| 2026-05-07 02:08 | 43.65367 | 18.52609 | 35044 ft | 487 kts | 148° |
| 2026-05-07 02:08 | 43.60005 | 18.58245 | 35041 ft | 488 kts | 148° |
| 2026-05-07 02:09 | 43.54594 | 18.63918 | 35042 ft | 488 kts | 148° |
| 2026-05-07 02:09 | 43.49189 | 18.69575 | 35036 ft | 488 kts | 148° |
| 2026-05-07 02:10 | 43.43785 | 18.75219 | 35050 ft | 488 kts | 148° |
| 2026-05-07 02:10 | 43.38387 | 18.80843 | 35053 ft | 487 kts | 148° |
| 2026-05-07 02:11 | 43.32967 | 18.86474 | 35058 ft | 488 kts | 148° |
| 2026-05-07 02:11 | 43.27541 | 18.92102 | 35055 ft | 488 kts | 148° |
| 2026-05-07 02:12 | 43.22118 | 18.97713 | 35060 ft | 488 kts | 148° |
| 2026-05-07 02:12 | 43.16689 | 19.03313 | 35068 ft | 489 kts | 148° |
| 2026-05-07 02:13 | 43.11256 | 19.08904 | 35070 ft | 488 kts | 148° |
| 2026-05-07 02:13 | 43.05831 | 19.14476 | 35084 ft | 488 kts | 148° |
| 2026-05-07 02:14 | 43.00393 | 19.20056 | 35081 ft | 489 kts | 148° |
| 2026-05-07 02:14 | 42.94953 | 19.25622 | 35083 ft | 489 kts | 148° |
| 2026-05-07 02:15 | 42.89505 | 19.31182 | 35088 ft | 488 kts | 148° |
| 2026-05-07 02:15 | 42.84057 | 19.36729 | 35092 ft | 488 kts | 148° |
| 2026-05-07 02:16 | 42.78614 | 19.42260 | 35095 ft | 488 kts | 148° |
| 2026-05-07 02:16 | 42.73167 | 19.47780 | 35087 ft | 489 kts | 148° |
| 2026-05-07 02:17 | 42.67699 | 19.53307 | 35102 ft | 490 kts | 148° |
| 2026-05-07 02:17 | 42.62222 | 19.58836 | 35106 ft | 491 kts | 148° |
| 2026-05-07 02:18 | 42.56737 | 19.64363 | 35107 ft | 490 kts | 148° |
| 2026-05-07 02:18 | 42.51258 | 19.69866 | 35105 ft | 490 kts | 148° |
| 2026-05-07 02:19 | 42.45811 | 19.75321 | 35107 ft | 490 kts | 148° |
| 2026-05-07 02:19 | 42.40339 | 19.80799 | 35092 ft | 489 kts | 148° |
| 2026-05-07 02:20 | 42.34839 | 19.86286 | 35108 ft | 492 kts | 148° |
| 2026-05-07 02:20 | 42.29286 | 19.91809 | 35112 ft | 493 kts | 148° |
| 2026-05-07 02:21 | 42.23792 | 19.97265 | 35099 ft | 493 kts | 148° |
| 2026-05-07 02:21 | 42.18253 | 20.02756 | 35105 ft | 493 kts | 148° |
| 2026-05-07 02:22 | 42.12711 | 20.08241 | 35097 ft | 493 kts | 148° |
| 2026-05-07 02:22 | 42.07179 | 20.13702 | 35096 ft | 493 kts | 148° |
| 2026-05-07 02:23 | 42.01613 | 20.19179 | 35101 ft | 498 kts | 148° |
| 2026-05-07 02:23 | 41.96017 | 20.24673 | 35099 ft | 499 kts | 148° |
| 2026-05-07 02:24 | 41.90406 | 20.30176 | 35106 ft | 499 kts | 148° |
| 2026-05-07 02:24 | 41.84831 | 20.35630 | 35100 ft | 499 kts | 148° |
| 2026-05-07 02:25 | 41.79210 | 20.41118 | 35100 ft | 499 kts | 148° |
| 2026-05-07 02:25 | 41.73593 | 20.46588 | 35100 ft | 498 kts | 148° |
| 2026-05-07 02:26 | 41.67968 | 20.52053 | 35094 ft | 501 kts | 148° |
| 2026-05-07 02:26 | 41.62379 | 20.57668 | 35095 ft | 504 kts | 145° |
| 2026-05-07 02:27 | 41.56930 | 20.63512 | 35091 ft | 505 kts | 145° |
| 2026-05-07 02:27 | 41.51458 | 20.69376 | 35104 ft | 504 kts | 145° |
| 2026-05-07 02:28 | 41.45969 | 20.75180 | 35079 ft | 503 kts | 145° |
| 2026-05-07 02:28 | 41.40474 | 20.80944 | 35093 ft | 503 kts | 145° |
| 2026-05-07 02:29 | 41.34954 | 20.86715 | 35079 ft | 505 kts | 145° |
| 2026-05-07 02:29 | 41.29420 | 20.92491 | 35094 ft | 506 kts | 145° |
| 2026-05-07 02:30 | 41.23840 | 20.98304 | 35095 ft | 506 kts | 145° |
| 2026-05-07 02:30 | 41.18295 | 21.04069 | 35087 ft | 506 kts | 145° |
| 2026-05-07 02:31 | 41.12746 | 21.09827 | 35085 ft | 506 kts | 145° |
| 2026-05-07 02:31 | 41.07228 | 21.15539 | 35082 ft | 506 kts | 145° |
| 2026-05-07 02:32 | 41.01649 | 21.21299 | 35079 ft | 509 kts | 145° |
| 2026-05-07 02:32 | 40.96042 | 21.27071 | 35083 ft | 511 kts | 145° |
| 2026-05-07 02:33 | 40.90419 | 21.32853 | 35082 ft | 511 kts | 145° |
| 2026-05-07 02:33 | 40.85108 | 21.39143 | 35085 ft | 514 kts | 137° |
| 2026-05-07 02:34 | 40.80085 | 21.45889 | 35086 ft | 515 kts | 136° |
| 2026-05-07 02:34 | 40.75110 | 21.52687 | 35085 ft | 515 kts | 136° |
| 2026-05-07 02:35 | 40.70163 | 21.59423 | 35083 ft | 515 kts | 136° |
| 2026-05-07 02:35 | 40.65169 | 21.66184 | 35087 ft | 515 kts | 137° |
| 2026-05-07 02:36 | 40.60159 | 21.72938 | 35090 ft | 515 kts | 137° |
| 2026-05-07 02:36 | 40.55156 | 21.79668 | 35092 ft | 514 kts | 137° |
| 2026-05-07 02:37 | 40.50141 | 21.86398 | 35096 ft | 515 kts | 136° |
| 2026-05-07 02:37 | 40.45147 | 21.93086 | 35096 ft | 516 kts | 136° |
| 2026-05-07 02:38 | 40.40119 | 21.99807 | 35098 ft | 516 kts | 136° |
| 2026-05-07 02:38 | 40.35057 | 22.06556 | 35095 ft | 516 kts | 136° |
| 2026-05-07 02:39 | 40.30023 | 22.13252 | 35096 ft | 515 kts | 136° |
| 2026-05-07 02:39 | 40.25835 | 22.18811 | 35097 ft | 516 kts | 136° |
| 2026-05-07 02:40 | 40.20784 | 22.25503 | 35078 ft | 516 kts | 136° |
| 2026-05-07 02:40 | 40.15734 | 22.32176 | 35079 ft | 516 kts | 136° |
| 2026-05-07 02:41 | 40.10672 | 22.38855 | 35084 ft | 517 kts | 136° |
| 2026-05-07 02:41 | 40.05611 | 22.45516 | 35081 ft | 516 kts | 136° |
| 2026-05-07 02:42 | 40.00544 | 22.52166 | 35070 ft | 517 kts | 136° |
| 2026-05-07 02:42 | 39.95467 | 22.58817 | 35066 ft | 517 kts | 136° |
| 2026-05-07 02:43 | 39.90388 | 22.65457 | 35063 ft | 517 kts | 136° |
| 2026-05-07 02:43 | 39.85348 | 22.72030 | 35063 ft | 516 kts | 136° |
| 2026-05-07 02:44 | 39.80273 | 22.78634 | 35057 ft | 516 kts | 136° |
| 2026-05-07 02:44 | 39.75188 | 22.85234 | 35059 ft | 516 kts | 136° |
| 2026-05-07 02:45 | 39.70106 | 22.91820 | 35065 ft | 516 kts | 136° |
| 2026-05-07 02:45 | 39.65020 | 22.98394 | 35058 ft | 516 kts | 136° |
| 2026-05-07 02:46 | 39.59930 | 23.04959 | 35059 ft | 516 kts | 136° |
| 2026-05-07 02:46 | 39.54842 | 23.11508 | 35061 ft | 516 kts | 136° |
| 2026-05-07 02:47 | 39.49741 | 23.18058 | 35055 ft | 516 kts | 136° |
| 2026-05-07 02:47 | 39.44637 | 23.24599 | 35053 ft | 516 kts | 136° |
| 2026-05-07 02:48 | 39.39524 | 23.31138 | 35055 ft | 516 kts | 136° |
| 2026-05-07 02:48 | 39.34407 | 23.37665 | 35045 ft | 516 kts | 136° |
| 2026-05-07 02:49 | 39.29294 | 23.44174 | 35058 ft | 516 kts | 136° |
| 2026-05-07 02:49 | 39.24200 | 23.50645 | 35052 ft | 518 kts | 136° |
| 2026-05-07 02:50 | 39.19061 | 23.57160 | 35049 ft | 518 kts | 136° |
| 2026-05-07 02:50 | 39.13913 | 23.63671 | 35050 ft | 518 kts | 136° |
| 2026-05-07 02:51 | 39.08763 | 23.70171 | 35053 ft | 518 kts | 136° |
| 2026-05-07 02:51 | 39.03617 | 23.76652 | 35056 ft | 518 kts | 136° |
| 2026-05-07 02:52 | 38.98452 | 23.83144 | 35055 ft | 520 kts | 136° |
| 2026-05-07 02:52 | 38.93270 | 23.89641 | 35055 ft | 520 kts | 136° |
| 2026-05-07 02:53 | 38.88090 | 23.96122 | 35057 ft | 520 kts | 136° |
| 2026-05-07 02:53 | 38.82904 | 24.02597 | 35059 ft | 520 kts | 136° |
| 2026-05-07 02:54 | 38.77718 | 24.09058 | 35059 ft | 520 kts | 135° |
| 2026-05-07 02:54 | 38.72505 | 24.15539 | 35057 ft | 523 kts | 135° |
| 2026-05-07 02:55 | 38.67282 | 24.22019 | 35059 ft | 523 kts | 135° |
| 2026-05-07 02:55 | 38.62059 | 24.28485 | 35062 ft | 523 kts | 135° |
| 2026-05-07 02:56 | 38.56827 | 24.34948 | 35057 ft | 523 kts | 135° |
| 2026-05-07 02:56 | 38.51587 | 24.41406 | 35064 ft | 524 kts | 135° |
| 2026-05-07 02:57 | 38.46325 | 24.47878 | 35061 ft | 525 kts | 135° |
| 2026-05-07 02:57 | 38.41065 | 24.54334 | 35065 ft | 525 kts | 135° |
| 2026-05-07 02:58 | 38.35799 | 24.60784 | 35065 ft | 525 kts | 135° |
| 2026-05-07 02:58 | 38.30526 | 24.67229 | 35073 ft | 525 kts | 135° |
| 2026-05-07 02:59 | 38.25256 | 24.73655 | 35071 ft | 525 kts | 135° |
| 2026-05-07 02:59 | 38.19980 | 24.80077 | 35077 ft | 525 kts | 135° |
| 2026-05-07 03:00 | 38.14739 | 24.86445 | 35062 ft | 524 kts | 135° |
| 2026-05-07 03:00 | 38.09466 | 24.92835 | 35079 ft | 524 kts | 135° |
| 2026-05-07 03:01 | 38.04184 | 24.99220 | 35077 ft | 523 kts | 135° |
| 2026-05-07 03:01 | 37.98918 | 25.05574 | 35078 ft | 523 kts | 135° |
| 2026-05-07 03:02 | 37.93611 | 25.11965 | 35082 ft | 522 kts | 135° |
| 2026-05-07 03:02 | 37.88338 | 25.18302 | 35082 ft | 522 kts | 135° |
| 2026-05-07 03:03 | 37.83066 | 25.24626 | 35082 ft | 522 kts | 135° |
| 2026-05-07 03:03 | 37.77818 | 25.30906 | 35082 ft | 522 kts | 135° |
| 2026-05-07 03:04 | 37.72542 | 25.37210 | 35081 ft | 522 kts | 135° |
| 2026-05-07 03:04 | 37.67259 | 25.43506 | 35079 ft | 521 kts | 135° |
| 2026-05-07 03:05 | 37.61978 | 25.49787 | 35079 ft | 521 kts | 135° |
| 2026-05-07 03:05 | 37.56702 | 25.56051 | 35080 ft | 520 kts | 135° |
| 2026-05-07 03:06 | 37.51439 | 25.62285 | 35079 ft | 519 kts | 136° |
| 2026-05-07 03:06 | 37.46176 | 25.68508 | 35086 ft | 518 kts | 136° |
| 2026-05-07 03:07 | 37.40917 | 25.74712 | 35085 ft | 518 kts | 136° |
| 2026-05-07 03:07 | 37.35653 | 25.80910 | 35093 ft | 518 kts | 136° |
| 2026-05-07 03:08 | 37.30391 | 25.87093 | 35100 ft | 518 kts | 136° |
| 2026-05-07 03:08 | 37.25121 | 25.93275 | 35098 ft | 518 kts | 136° |
| 2026-05-07 03:09 | 37.19887 | 25.99401 | 35104 ft | 517 kts | 137° |
| 2026-05-07 03:09 | 37.14623 | 26.05549 | 35104 ft | 517 kts | 137° |
| 2026-05-07 03:10 | 37.09357 | 26.11687 | 35105 ft | 517 kts | 137° |
| 2026-05-07 03:10 | 37.04081 | 26.17825 | 35104 ft | 517 kts | 137° |
| 2026-05-07 03:11 | 36.98865 | 26.24031 | 35097 ft | 517 kts | 132° |
| 2026-05-07 03:11 | 36.94462 | 26.31126 | 35109 ft | 516 kts | 125° |
| 2026-05-07 03:12 | 36.90351 | 26.38403 | 35104 ft | 516 kts | 124° |
| 2026-05-07 03:12 | 36.86248 | 26.45758 | 35104 ft | 516 kts | 124° |
| 2026-05-07 03:13 | 36.82127 | 26.53096 | 35105 ft | 516 kts | 124° |
| 2026-05-07 03:13 | 36.77987 | 26.60421 | 35107 ft | 516 kts | 124° |
| 2026-05-07 03:14 | 36.73837 | 26.67735 | 35105 ft | 516 kts | 125° |
| 2026-05-07 03:15 | 36.67606 | 26.78690 | 35106 ft | 516 kts | 125° |
| 2026-05-07 03:15 | 36.63449 | 26.85979 | 35106 ft | 516 kts | 125° |
| 2026-05-07 03:16 | 36.59275 | 26.93284 | 35107 ft | 517 kts | 125° |
| 2026-05-07 03:16 | 36.55097 | 27.00580 | 35105 ft | 518 kts | 125° |
| 2026-05-07 03:17 | 36.50936 | 27.07830 | 35108 ft | 518 kts | 125° |
| 2026-05-07 03:17 | 36.46742 | 27.15122 | 35104 ft | 518 kts | 125° |
| 2026-05-07 03:18 | 36.42553 | 27.22391 | 35108 ft | 517 kts | 125° |
| 2026-05-07 03:18 | 36.38362 | 27.29647 | 35103 ft | 517 kts | 125° |
| 2026-05-07 03:19 | 36.34161 | 27.36905 | 35099 ft | 517 kts | 125° |
| 2026-05-07 03:19 | 36.29960 | 27.44148 | 35100 ft | 517 kts | 125° |
| 2026-05-07 03:20 | 36.25754 | 27.51384 | 35097 ft | 517 kts | 125° |
| 2026-05-07 03:20 | 36.22250 | 27.57400 | 35098 ft | 518 kts | 125° |
| 2026-05-07 03:21 | 36.17340 | 27.65813 | 35101 ft | 518 kts | 126° |
| 2026-05-07 03:21 | 36.13115 | 27.73036 | 35108 ft | 518 kts | 126° |
| 2026-05-07 03:22 | 36.09574 | 27.79078 | 35104 ft | 518 kts | 126° |
| 2026-05-07 03:22 | 36.05363 | 27.86249 | 35111 ft | 518 kts | 126° |
| 2026-05-07 03:23 | 36.01125 | 27.93450 | 35111 ft | 518 kts | 126° |
| 2026-05-07 03:23 | 35.96878 | 28.00654 | 35111 ft | 518 kts | 126° |
| 2026-05-07 03:24 | 35.92628 | 28.07846 | 35113 ft | 518 kts | 126° |
| 2026-05-07 03:24 | 35.88375 | 28.15029 | 35108 ft | 518 kts | 126° |
| 2026-05-07 03:25 | 35.84146 | 28.22156 | 35098 ft | 518 kts | 126° |
| 2026-05-07 03:25 | 35.79879 | 28.29333 | 35109 ft | 519 kts | 126° |
| 2026-05-07 03:26 | 35.75611 | 28.36497 | 35109 ft | 519 kts | 126° |
| 2026-05-07 03:26 | 35.71337 | 28.43655 | 35109 ft | 519 kts | 126° |
| 2026-05-07 03:27 | 35.67058 | 28.50807 | 35111 ft | 519 kts | 126° |
| 2026-05-07 03:27 | 35.62781 | 28.57943 | 35108 ft | 519 kts | 126° |
| 2026-05-07 03:28 | 35.58488 | 28.65087 | 35108 ft | 519 kts | 126° |
| 2026-05-07 03:28 | 35.54196 | 28.72217 | 35108 ft | 519 kts | 126° |
| 2026-05-07 03:29 | 35.49892 | 28.79353 | 35109 ft | 519 kts | 126° |
| 2026-05-07 03:29 | 35.45587 | 28.86475 | 35103 ft | 519 kts | 126° |
| 2026-05-07 03:30 | 35.41281 | 28.93585 | 35109 ft | 519 kts | 126° |
| 2026-05-07 03:30 | 35.36994 | 29.00649 | 35110 ft | 520 kts | 126° |
| 2026-05-07 03:31 | 35.32670 | 29.07758 | 35110 ft | 520 kts | 126° |
| 2026-05-07 03:31 | 35.28344 | 29.14858 | 35111 ft | 520 kts | 127° |
| 2026-05-07 03:32 | 35.24015 | 29.21947 | 35112 ft | 520 kts | 127° |
| 2026-05-07 03:32 | 35.19680 | 29.29031 | 35113 ft | 520 kts | 127° |
| 2026-05-07 03:33 | 35.15340 | 29.36110 | 35111 ft | 520 kts | 127° |
| 2026-05-07 03:33 | 35.10996 | 29.43181 | 35116 ft | 520 kts | 127° |
| 2026-05-07 03:34 | 35.06643 | 29.50254 | 35112 ft | 520 kts | 127° |
| 2026-05-07 03:34 | 35.02287 | 29.57316 | 35114 ft | 520 kts | 127° |
| 2026-05-07 03:35 | 34.97936 | 29.64356 | 35119 ft | 520 kts | 127° |
| 2026-05-07 03:35 | 34.93576 | 29.71396 | 35117 ft | 520 kts | 127° |
| 2026-05-07 03:36 | 34.89215 | 29.78424 | 35117 ft | 520 kts | 127° |
| 2026-05-07 03:36 | 34.84853 | 29.85440 | 35119 ft | 520 kts | 127° |
| 2026-05-07 03:37 | 34.80512 | 29.92409 | 35120 ft | 520 kts | 127° |
| 2026-05-07 03:37 | 34.76032 | 29.99304 | 35119 ft | 519 kts | 134° |
| 2026-05-07 03:38 | 34.70698 | 30.05211 | 35117 ft | 518 kts | 140° |
| 2026-05-07 03:38 | 34.65157 | 30.10828 | 35127 ft | 518 kts | 141° |
| 2026-05-07 03:39 | 34.59595 | 30.16387 | 35126 ft | 517 kts | 142° |
| 2026-05-07 03:39 | 34.54049 | 30.21947 | 35113 ft | 517 kts | 141° |
| 2026-05-07 03:40 | 34.48506 | 30.27518 | 35113 ft | 517 kts | 141° |
| 2026-05-07 03:40 | 34.42992 | 30.33056 | 35128 ft | 517 kts | 141° |
| 2026-05-07 03:41 | 34.37451 | 30.38611 | 35129 ft | 517 kts | 141° |
| 2026-05-07 03:41 | 34.31906 | 30.44160 | 35134 ft | 517 kts | 142° |
| 2026-05-07 03:42 | 34.26355 | 30.49704 | 35119 ft | 517 kts | 142° |
| 2026-05-07 03:42 | 34.20807 | 30.55235 | 35116 ft | 517 kts | 142° |
| 2026-05-07 03:43 | 34.15260 | 30.60755 | 35115 ft | 517 kts | 142° |
| 2026-05-07 03:43 | 34.09697 | 30.66282 | 35132 ft | 517 kts | 142° |
| 2026-05-07 03:44 | 34.04180 | 30.71754 | 35124 ft | 516 kts | 142° |
| 2026-05-07 03:44 | 33.98635 | 30.77243 | 35124 ft | 516 kts | 142° |
| 2026-05-07 03:45 | 33.93090 | 30.82724 | 35125 ft | 516 kts | 142° |
| 2026-05-07 03:45 | 33.87544 | 30.88194 | 35124 ft | 515 kts | 142° |
| 2026-05-07 03:46 | 33.81991 | 30.93663 | 35123 ft | 515 kts | 142° |
| 2026-05-07 03:46 | 33.76441 | 30.99120 | 35112 ft | 515 kts | 142° |
| 2026-05-07 03:47 | 33.70893 | 31.04566 | 35124 ft | 514 kts | 142° |
| 2026-05-07 03:47 | 33.65351 | 31.09995 | 35124 ft | 514 kts | 142° |
| 2026-05-07 03:48 | 33.59841 | 31.15385 | 35123 ft | 514 kts | 142° |
| 2026-05-07 03:48 | 33.54295 | 31.20799 | 35125 ft | 514 kts | 142° |
| 2026-05-07 03:49 | 33.48742 | 31.26213 | 35124 ft | 514 kts | 142° |
| 2026-05-07 03:49 | 33.43186 | 31.31620 | 35117 ft | 513 kts | 143° |
| 2026-05-07 03:50 | 33.37648 | 31.36999 | 35120 ft | 513 kts | 143° |
| 2026-05-07 03:50 | 33.32102 | 31.42378 | 35121 ft | 513 kts | 143° |
| 2026-05-07 03:51 | 33.26556 | 31.47747 | 35128 ft | 513 kts | 143° |
| 2026-05-07 03:51 | 33.21043 | 31.53076 | 35123 ft | 513 kts | 143° |
| 2026-05-07 03:52 | 33.15489 | 31.58435 | 35120 ft | 512 kts | 143° |
| 2026-05-07 03:52 | 33.09941 | 31.63779 | 35120 ft | 512 kts | 143° |
| 2026-05-07 03:53 | 33.04405 | 31.69103 | 35125 ft | 511 kts | 143° |
| 2026-05-07 03:53 | 32.98865 | 31.74421 | 35119 ft | 511 kts | 143° |
| 2026-05-07 03:54 | 32.93318 | 31.79738 | 35119 ft | 511 kts | 143° |
| 2026-05-07 03:54 | 32.87771 | 31.85046 | 35120 ft | 511 kts | 143° |
| 2026-05-07 03:55 | 32.82231 | 31.90338 | 35116 ft | 511 kts | 143° |
| 2026-05-07 03:55 | 32.76696 | 31.95618 | 35118 ft | 509 kts | 143° |
| 2026-05-07 03:56 | 32.71170 | 32.00879 | 35118 ft | 509 kts | 143° |
| 2026-05-07 03:56 | 32.65675 | 32.06103 | 35119 ft | 509 kts | 143° |
| 2026-05-07 03:57 | 32.60103 | 32.11296 | 35116 ft | 508 kts | 146° |
| 2026-05-07 03:57 | 32.54347 | 32.16143 | 35116 ft | 507 kts | 147° |
| 2026-05-07 03:58 | 32.48564 | 32.20925 | 35115 ft | 506 kts | 147° |
| 2026-05-07 03:58 | 32.42815 | 32.25745 | 35116 ft | 506 kts | 147° |
| 2026-05-07 03:59 | 32.37088 | 32.30584 | 35116 ft | 505 kts | 146° |
| 2026-05-07 03:59 | 32.31367 | 32.35422 | 35118 ft | 505 kts | 147° |
| 2026-05-07 04:00 | 32.25648 | 32.40248 | 35117 ft | 505 kts | 147° |
| 2026-05-07 04:00 | 32.19921 | 32.45070 | 35113 ft | 505 kts | 147° |
| 2026-05-07 04:01 | 32.14249 | 32.49844 | 35117 ft | 503 kts | 146° |
| 2026-05-07 04:01 | 32.08549 | 32.54626 | 35116 ft | 502 kts | 147° |
| 2026-05-07 04:02 | 32.02851 | 32.59391 | 35116 ft | 502 kts | 147° |
| 2026-05-07 04:02 | 31.97142 | 32.64161 | 35110 ft | 502 kts | 147° |
| 2026-05-07 04:03 | 31.91440 | 32.68920 | 35104 ft | 502 kts | 147° |
| 2026-05-07 04:03 | 31.85739 | 32.73671 | 35107 ft | 502 kts | 147° |
| 2026-05-07 04:04 | 31.80042 | 32.78412 | 35108 ft | 502 kts | 147° |
| 2026-05-07 04:04 | 31.74341 | 32.83150 | 35107 ft | 502 kts | 147° |
| 2026-05-07 04:05 | 31.68635 | 32.87883 | 35111 ft | 502 kts | 147° |
| 2026-05-07 04:05 | 31.63897 | 32.91809 | 35111 ft | 502 kts | 147° |
| 2026-05-07 04:06 | 31.58195 | 32.96526 | 35105 ft | 501 kts | 147° |
| 2026-05-07 04:06 | 31.52487 | 33.01241 | 35108 ft | 501 kts | 147° |
| 2026-05-07 04:07 | 31.46775 | 33.05952 | 35110 ft | 501 kts | 147° |
| 2026-05-07 04:07 | 31.41069 | 33.10651 | 35108 ft | 501 kts | 147° |
| 2026-05-07 04:08 | 31.35242 | 33.15116 | 35105 ft | 499 kts | 153° |
| 2026-05-07 04:08 | 31.29216 | 33.19024 | 35102 ft | 497 kts | 154° |
| 2026-05-07 04:09 | 31.23127 | 33.22854 | 35105 ft | 497 kts | 154° |
| 2026-05-07 04:09 | 31.17033 | 33.26672 | 35105 ft | 497 kts | 154° |
| 2026-05-07 04:10 | 31.10944 | 33.30495 | 35105 ft | 497 kts | 154° |
| 2026-05-07 04:10 | 31.04852 | 33.34322 | 35105 ft | 497 kts | 154° |
| 2026-05-07 04:11 | 30.98763 | 33.38143 | 35106 ft | 496 kts | 154° |
| 2026-05-07 04:11 | 30.92692 | 33.41947 | 35105 ft | 495 kts | 154° |
| 2026-05-07 04:12 | 30.86619 | 33.45746 | 35111 ft | 495 kts | 154° |
| 2026-05-07 04:12 | 30.80588 | 33.49512 | 35108 ft | 495 kts | 154° |
| 2026-05-07 04:13 | 30.74515 | 33.53300 | 35111 ft | 495 kts | 154° |
| 2026-05-07 04:13 | 30.68443 | 33.57082 | 35112 ft | 495 kts | 154° |
| 2026-05-07 04:14 | 30.62369 | 33.60860 | 35109 ft | 495 kts | 154° |
| 2026-05-07 04:14 | 30.56296 | 33.64631 | 35110 ft | 495 kts | 154° |
| 2026-05-07 04:15 | 30.50226 | 33.68396 | 35109 ft | 495 kts | 154° |
| 2026-05-07 04:15 | 30.44156 | 33.72154 | 35106 ft | 494 kts | 154° |
| 2026-05-07 04:16 | 30.38096 | 33.75901 | 35107 ft | 493 kts | 154° |
| 2026-05-07 04:16 | 30.32042 | 33.79639 | 35108 ft | 493 kts | 154° |
| 2026-05-07 04:17 | 30.25991 | 33.83371 | 35120 ft | 493 kts | 154° |
| 2026-05-07 04:17 | 30.19941 | 33.87097 | 35103 ft | 493 kts | 154° |
| 2026-05-07 04:18 | 30.13881 | 33.90823 | 35113 ft | 493 kts | 154° |
| 2026-05-07 04:18 | 30.07869 | 33.94514 | 35095 ft | 493 kts | 154° |
| 2026-05-07 04:19 | 30.01811 | 33.98229 | 35113 ft | 492 kts | 155° |
| 2026-05-07 04:19 | 29.95772 | 34.01927 | 35110 ft | 491 kts | 155° |
| 2026-05-07 04:20 | 29.89732 | 34.05621 | 35103 ft | 491 kts | 155° |
| 2026-05-07 04:20 | 29.83699 | 34.09306 | 35102 ft | 490 kts | 155° |
| 2026-05-07 04:21 | 29.74663 | 34.14815 | 35098 ft | 490 kts | 155° |
| 2026-05-07 04:21 | 29.68825 | 34.18769 | 35105 ft | 493 kts | 146° |
| 2026-05-07 04:22 | 29.64023 | 34.24459 | 35103 ft | 502 kts | 128° |
| 2026-05-07 04:22 | 29.62291 | 34.27962 | 35102 ft | 507 kts | 117° |
| 2026-05-07 04:22 | 29.61111 | 34.31800 | 35101 ft | 512 kts | 107° |
| 2026-05-07 04:23 | 29.60537 | 34.35840 | 35095 ft | 517 kts | 96° |
| 2026-05-07 04:23 | 29.60534 | 34.39984 | 35097 ft | 519 kts | 91° |
| 2026-05-07 04:23 | 29.60581 | 34.48284 | 35077 ft | 519 kts | 92° |
| 2026-05-07 04:24 | 29.59676 | 34.56471 | 35080 ft | 515 kts | 111° |
| 2026-05-07 04:24 | 29.56550 | 34.63711 | 35063 ft | 501 kts | 132° |
| 2026-05-07 04:25 | 29.51691 | 34.69295 | 35065 ft | 492 kts | 144° |
| 2026-05-07 04:25 | 29.46854 | 34.74926 | 35035 ft | 502 kts | 132° |
| 2026-05-07 04:26 | 29.43627 | 34.82145 | 35048 ft | 518 kts | 111° |
| 2026-05-07 04:26 | 29.42199 | 34.90249 | 35039 ft | 524 kts | 103° |
| 2026-05-07 04:27 | 29.41994 | 34.98699 | 35043 ft | 534 kts | 85° |
| 2026-05-07 04:27 | 29.43622 | 35.07010 | 35041 ft | 541 kts | 78° |
| 2026-05-07 04:28 | 29.45611 | 35.15344 | 35050 ft | 542 kts | 77° |
| 2026-05-07 04:28 | 29.47619 | 35.23683 | 35051 ft | 542 kts | 77° |
| 2026-05-07 04:29 | 29.49590 | 35.32045 | 35062 ft | 544 kts | 78° |
| 2026-05-07 04:29 | 29.51538 | 35.40430 | 35059 ft | 543 kts | 78° |
| 2026-05-07 04:30 | 29.53472 | 35.48804 | 35062 ft | 543 kts | 78° |
| 2026-05-07 04:30 | 29.55447 | 35.57186 | 35073 ft | 544 kts | 77° |
| 2026-05-07 04:31 | 29.57468 | 35.65634 | 35074 ft | 545 kts | 77° |
| 2026-05-07 04:31 | 29.59446 | 35.73980 | 35061 ft | 545 kts | 78° |
| 2026-05-07 04:32 | 29.61423 | 35.82394 | 35069 ft | 545 kts | 78° |
| 2026-05-07 04:32 | 29.62968 | 35.90900 | 35063 ft | 542 kts | 84° |
| 2026-05-07 04:33 | 29.64222 | 35.99457 | 35063 ft | 542 kts | 84° |
| 2026-05-07 04:33 | 29.65518 | 36.07998 | 35064 ft | 543 kts | 83° |
| 2026-05-07 04:34 | 29.66881 | 36.16539 | 35067 ft | 543 kts | 83° |
| 2026-05-07 04:34 | 29.68262 | 36.25070 | 35079 ft | 543 kts | 83° |
| 2026-05-07 04:35 | 29.69631 | 36.33560 | 35065 ft | 543 kts | 83° |
| 2026-05-07 04:35 | 29.71006 | 36.42093 | 35064 ft | 543 kts | 83° |
| 2026-05-07 04:36 | 29.72395 | 36.50648 | 35049 ft | 543 kts | 83° |
| 2026-05-07 04:36 | 29.73779 | 36.59201 | 35064 ft | 544 kts | 83° |
| 2026-05-07 04:37 | 29.74735 | 36.67800 | 35066 ft | 537 kts | 95° |
| 2026-05-07 04:37 | 29.73757 | 36.76203 | 35054 ft | 527 kts | 107° |
| 2026-05-07 04:38 | 29.72152 | 36.84453 | 35077 ft | 528 kts | 109° |
| 2026-05-07 04:38 | 29.70459 | 36.92664 | 35066 ft | 527 kts | 109° |
| 2026-05-07 04:39 | 29.68786 | 37.00874 | 35052 ft | 528 kts | 109° |
| 2026-05-07 04:39 | 29.67123 | 37.09126 | 35069 ft | 529 kts | 109° |
| 2026-05-07 04:40 | 29.65474 | 37.17320 | 35072 ft | 529 kts | 109° |
| 2026-05-07 04:40 | 29.63799 | 37.25619 | 35064 ft | 529 kts | 109° |
| 2026-05-07 04:41 | 29.62127 | 37.33865 | 35078 ft | 531 kts | 109° |
| 2026-05-07 04:41 | 29.60443 | 37.42139 | 35078 ft | 531 kts | 109° |
| 2026-05-07 04:42 | 29.58769 | 37.50342 | 35069 ft | 531 kts | 109° |
| 2026-05-07 04:42 | 29.57075 | 37.58610 | 35069 ft | 532 kts | 109° |
| 2026-05-07 04:43 | 29.55373 | 37.66889 | 35073 ft | 532 kts | 109° |
| 2026-05-07 04:43 | 29.53666 | 37.75170 | 35068 ft | 533 kts | 110° |
| 2026-05-07 04:44 | 29.51950 | 37.83459 | 35064 ft | 533 kts | 110° |
| 2026-05-07 04:44 | 29.50230 | 37.91743 | 35067 ft | 533 kts | 110° |
| 2026-05-07 04:45 | 29.48504 | 38.00032 | 35063 ft | 535 kts | 110° |
| 2026-05-07 04:45 | 29.46940 | 38.08401 | 35067 ft | 537 kts | 108° |
| 2026-05-07 04:46 | 29.45508 | 38.16824 | 35074 ft | 538 kts | 108° |
| 2026-05-07 04:46 | 29.44052 | 38.25239 | 35070 ft | 538 kts | 108° |
| 2026-05-07 04:47 | 29.42558 | 38.33655 | 35080 ft | 538 kts | 108° |
| 2026-05-07 04:47 | 29.41048 | 38.42062 | 35081 ft | 538 kts | 108° |
| 2026-05-07 04:48 | 29.39532 | 38.50469 | 35080 ft | 538 kts | 108° |
| 2026-05-07 04:48 | 29.38270 | 38.57444 | 35085 ft | 538 kts | 108° |
| 2026-05-07 04:49 | 29.36747 | 38.65843 | 35066 ft | 538 kts | 108° |
| 2026-05-07 04:49 | 29.35218 | 38.74242 | 35079 ft | 539 kts | 108° |
| 2026-05-07 04:50 | 29.33682 | 38.82651 | 35078 ft | 539 kts | 108° |
| 2026-05-07 04:50 | 29.32139 | 38.91064 | 35068 ft | 539 kts | 108° |
| 2026-05-07 04:51 | 29.30460 | 38.99434 | 35084 ft | 539 kts | 110° |
| 2026-05-07 04:51 | 29.28670 | 39.07762 | 35067 ft | 538 kts | 111° |
| 2026-05-07 04:52 | 29.26897 | 39.16054 | 35074 ft | 539 kts | 110° |
| 2026-05-07 04:52 | 29.25128 | 39.24411 | 35076 ft | 540 kts | 110° |
| 2026-05-07 04:53 | 29.23363 | 39.32767 | 35075 ft | 540 kts | 110° |
| 2026-05-07 04:53 | 29.21592 | 39.41138 | 35073 ft | 541 kts | 110° |
| 2026-05-07 04:54 | 29.19811 | 39.49517 | 35075 ft | 542 kts | 110° |
| 2026-05-07 04:54 | 29.18028 | 39.57885 | 35075 ft | 542 kts | 110° |
| 2026-05-07 04:55 | 29.16233 | 39.66273 | 35078 ft | 542 kts | 111° |
| 2026-05-07 04:55 | 29.14433 | 39.74653 | 35080 ft | 542 kts | 111° |
| 2026-05-07 04:56 | 29.12625 | 39.83029 | 35077 ft | 542 kts | 111° |
| 2026-05-07 04:56 | 29.09802 | 39.90807 | 35084 ft | 520 kts | 131° |
| 2026-05-07 04:57 | 29.07676 | 39.94077 | 35076 ft | 506 kts | 141° |
| 2026-05-07 04:57 | 29.05256 | 39.96957 | 35078 ft | 501 kts | 144° |
| 2026-05-07 04:57 | 29.00212 | 40.02432 | 35078 ft | 499 kts | 146° |
| 2026-05-07 04:58 | 28.95113 | 40.07808 | 35080 ft | 499 kts | 146° |
| 2026-05-07 04:58 | 28.90022 | 40.13214 | 35080 ft | 500 kts | 146° |
| 2026-05-07 04:59 | 28.84945 | 40.18645 | 35081 ft | 500 kts | 146° |
| 2026-05-07 04:59 | 28.79902 | 40.24044 | 35080 ft | 500 kts | 146° |
| 2026-05-07 05:00 | 28.74821 | 40.29475 | 35078 ft | 501 kts | 146° |
| 2026-05-07 05:00 | 28.69739 | 40.34898 | 35078 ft | 501 kts | 146° |
| 2026-05-07 05:01 | 28.64655 | 40.40317 | 35082 ft | 501 kts | 146° |
| 2026-05-07 05:01 | 28.59562 | 40.45739 | 35077 ft | 501 kts | 146° |
| 2026-05-07 05:02 | 28.54470 | 40.51150 | 35075 ft | 501 kts | 146° |
| 2026-05-07 05:02 | 28.49373 | 40.56556 | 35073 ft | 501 kts | 146° |
| 2026-05-07 05:03 | 28.44275 | 40.61956 | 35072 ft | 501 kts | 146° |
| 2026-05-07 05:03 | 28.39177 | 40.67348 | 35072 ft | 501 kts | 146° |
| 2026-05-07 05:04 | 28.34080 | 40.72735 | 35066 ft | 501 kts | 146° |
| 2026-05-07 05:04 | 28.28971 | 40.78125 | 35067 ft | 501 kts | 146° |
| 2026-05-07 05:05 | 28.23862 | 40.83509 | 35066 ft | 501 kts | 146° |
| 2026-05-07 05:05 | 28.18752 | 40.88887 | 35062 ft | 501 kts | 146° |
| 2026-05-07 05:06 | 28.13644 | 40.94254 | 35059 ft | 501 kts | 146° |
| 2026-05-07 05:06 | 28.08524 | 40.99626 | 35063 ft | 501 kts | 146° |
| 2026-05-07 05:07 | 28.03403 | 41.04993 | 35056 ft | 501 kts | 146° |
| 2026-05-07 05:07 | 27.98284 | 41.10352 | 35056 ft | 501 kts | 146° |
| 2026-05-07 05:08 | 27.93193 | 41.15673 | 35119 ft | 501 kts | 146° |
| 2026-05-07 05:08 | 27.90638 | 41.18343 | 35455 ft | 499 kts | 146° |
| 2026-05-07 05:08 | 27.88097 | 41.21000 | 35798 ft | 497 kts | 146° |
| 2026-05-07 05:09 | 27.85559 | 41.23650 | 36097 ft | 496 kts | 146° |
| 2026-05-07 05:09 | 27.83025 | 41.26292 | 36332 ft | 495 kts | 147° |
| 2026-05-07 05:09 | 27.80483 | 41.28937 | 36567 ft | 495 kts | 147° |
| 2026-05-07 05:09 | 27.77950 | 41.31574 | 36819 ft | 495 kts | 147° |
| 2026-05-07 05:10 | 27.75405 | 41.34219 | 36998 ft | 496 kts | 147° |
| 2026-05-07 05:10 | 27.72860 | 41.36861 | 37051 ft | 499 kts | 147° |
| 2026-05-07 05:10 | 27.67742 | 41.42163 | 37061 ft | 504 kts | 147° |
| 2026-05-07 05:11 | 27.62594 | 41.47509 | 37082 ft | 503 kts | 147° |
| 2026-05-07 05:11 | 27.57452 | 41.52841 | 37089 ft | 502 kts | 147° |
| 2026-05-07 05:12 | 27.52307 | 41.58162 | 37090 ft | 502 kts | 147° |
| 2026-05-07 05:12 | 27.47157 | 41.63484 | 37096 ft | 501 kts | 147° |
| 2026-05-07 05:13 | 27.42265 | 41.69175 | 37103 ft | 517 kts | 135° |
| 2026-05-07 05:13 | 27.38315 | 41.76053 | 37080 ft | 526 kts | 129° |
| 2026-05-07 05:14 | 27.34593 | 41.83175 | 37075 ft | 529 kts | 128° |
| 2026-05-07 05:14 | 27.30888 | 41.90322 | 37077 ft | 528 kts | 129° |
| 2026-05-07 05:15 | 27.27153 | 41.97445 | 37072 ft | 528 kts | 129° |
| 2026-05-07 05:15 | 27.23398 | 42.04549 | 37068 ft | 529 kts | 129° |
| 2026-05-07 05:16 | 27.19651 | 42.11616 | 37075 ft | 530 kts | 129° |
| 2026-05-07 05:16 | 27.15874 | 42.18734 | 37074 ft | 530 kts | 129° |
| 2026-05-07 05:17 | 27.12098 | 42.25841 | 37076 ft | 531 kts | 129° |
| 2026-05-07 05:17 | 27.08308 | 42.32960 | 37073 ft | 531 kts | 129° |
| 2026-05-07 05:18 | 27.04518 | 42.40075 | 37075 ft | 531 kts | 129° |
| 2026-05-07 05:18 | 27.00719 | 42.47187 | 37069 ft | 531 kts | 129° |
| 2026-05-07 05:19 | 26.96917 | 42.54293 | 37062 ft | 531 kts | 129° |
| 2026-05-07 05:19 | 26.93109 | 42.61401 | 37043 ft | 531 kts | 129° |
| 2026-05-07 05:20 | 26.89303 | 42.68494 | 37059 ft | 530 kts | 129° |
| 2026-05-07 05:20 | 26.85498 | 42.75574 | 37054 ft | 530 kts | 129° |
| 2026-05-07 05:21 | 26.79809 | 42.86134 | 37048 ft | 530 kts | 129° |
| 2026-05-07 05:22 | 26.75994 | 42.93203 | 37045 ft | 530 kts | 129° |
| 2026-05-07 05:22 | 26.72154 | 43.00308 | 37045 ft | 530 kts | 129° |
| 2026-05-07 05:23 | 26.68357 | 43.07322 | 37036 ft | 529 kts | 129° |
| 2026-05-07 05:23 | 26.64547 | 43.14352 | 37023 ft | 529 kts | 129° |
| 2026-05-07 05:24 | 26.60735 | 43.21385 | 37020 ft | 529 kts | 129° |
| 2026-05-07 05:24 | 26.56918 | 43.28400 | 37015 ft | 529 kts | 129° |
| 2026-05-07 05:25 | 26.53086 | 43.35432 | 37005 ft | 529 kts | 129° |
| 2026-05-07 05:25 | 26.49259 | 43.42446 | 37012 ft | 529 kts | 129° |
| 2026-05-07 05:26 | 26.45423 | 43.49470 | 37002 ft | 530 kts | 129° |
| 2026-05-07 05:26 | 26.41580 | 43.56496 | 36995 ft | 530 kts | 129° |
| 2026-05-07 05:27 | 26.37738 | 43.63509 | 36979 ft | 530 kts | 129° |
| 2026-05-07 05:27 | 26.33886 | 43.70530 | 36993 ft | 531 kts | 129° |
| 2026-05-07 05:28 | 26.30027 | 43.77553 | 36993 ft | 531 kts | 130° |
| 2026-05-07 05:28 | 26.26428 | 43.84728 | 36986 ft | 537 kts | 124° |
| 2026-05-07 05:29 | 26.23118 | 43.92223 | 36991 ft | 540 kts | 124° |
| 2026-05-07 05:29 | 26.19787 | 43.99719 | 36986 ft | 539 kts | 124° |
| 2026-05-07 05:30 | 26.16389 | 44.07168 | 36982 ft | 540 kts | 125° |
| 2026-05-07 05:30 | 26.12946 | 44.14622 | 36983 ft | 541 kts | 125° |
| 2026-05-07 05:31 | 26.09492 | 44.22080 | 36970 ft | 542 kts | 125° |
| 2026-05-07 05:31 | 26.06035 | 44.29538 | 36978 ft | 543 kts | 125° |
| 2026-05-07 05:32 | 26.03151 | 44.35754 | 36978 ft | 544 kts | 125° |
| 2026-05-07 05:32 | 25.99678 | 44.43232 | 36953 ft | 544 kts | 125° |
| 2026-05-07 05:33 | 25.96203 | 44.50703 | 36971 ft | 544 kts | 125° |
| 2026-05-07 05:33 | 25.92724 | 44.58165 | 36973 ft | 544 kts | 125° |
| 2026-05-07 05:34 | 25.89241 | 44.65625 | 36968 ft | 544 kts | 125° |
| 2026-05-07 05:34 | 25.85759 | 44.73072 | 36967 ft | 543 kts | 125° |
| 2026-05-07 05:35 | 25.82272 | 44.80509 | 36971 ft | 543 kts | 125° |
| 2026-05-07 05:35 | 25.78777 | 44.87942 | 36972 ft | 543 kts | 126° |
| 2026-05-07 05:36 | 25.75286 | 44.95357 | 36988 ft | 542 kts | 126° |
| 2026-05-07 05:36 | 25.71806 | 45.02735 | 36977 ft | 543 kts | 126° |
| 2026-05-07 05:37 | 25.68297 | 45.10164 | 36968 ft | 543 kts | 125° |
| 2026-05-07 05:37 | 25.64798 | 45.17574 | 36979 ft | 543 kts | 125° |
| 2026-05-07 05:38 | 25.61290 | 45.24989 | 36983 ft | 543 kts | 126° |
| 2026-05-07 05:38 | 25.57777 | 45.32398 | 36984 ft | 543 kts | 126° |
| 2026-05-07 05:39 | 25.54262 | 45.39801 | 36975 ft | 542 kts | 126° |
| 2026-05-07 05:39 | 25.50767 | 45.47153 | 36985 ft | 542 kts | 126° |
| 2026-05-07 05:40 | 25.47247 | 45.54542 | 36987 ft | 542 kts | 126° |
| 2026-05-07 05:40 | 25.43721 | 45.61934 | 36982 ft | 542 kts | 125° |
| 2026-05-07 05:41 | 25.40199 | 45.69305 | 36985 ft | 542 kts | 125° |
| 2026-05-07 05:41 | 25.36670 | 45.76677 | 36985 ft | 542 kts | 125° |
| 2026-05-07 05:42 | 25.33234 | 45.84130 | 36962 ft | 546 kts | 122° |
| 2026-05-07 05:42 | 25.30063 | 45.91760 | 36977 ft | 546 kts | 121° |
| 2026-05-07 05:43 | 25.26909 | 45.99389 | 36998 ft | 546 kts | 122° |
| 2026-05-07 05:43 | 25.23712 | 46.06978 | 37001 ft | 545 kts | 122° |
| 2026-05-07 05:44 | 25.20498 | 46.14523 | 36994 ft | 544 kts | 122° |
| 2026-05-07 05:44 | 25.17275 | 46.22069 | 36999 ft | 543 kts | 122° |
| 2026-05-07 05:45 | 25.14048 | 46.29614 | 37001 ft | 543 kts | 122° |
| 2026-05-07 05:45 | 25.10821 | 46.37146 | 37010 ft | 543 kts | 122° |
| 2026-05-07 05:46 | 25.07597 | 46.44663 | 37026 ft | 541 kts | 122° |
| 2026-05-07 05:46 | 25.04377 | 46.52159 | 37035 ft | 540 kts | 122° |
| 2026-05-07 05:47 | 25.01119 | 46.59613 | 37035 ft | 536 kts | 126° |
| 2026-05-07 05:47 | 24.96759 | 46.65971 | 37050 ft | 513 kts | 145° |
| 2026-05-07 05:47 | 24.93968 | 46.68415 | 37043 ft | 500 kts | 155° |
| 2026-05-07 05:48 | 24.90997 | 46.70228 | 37051 ft | 490 kts | 162° |
| 2026-05-07 05:48 | 24.84785 | 46.73265 | 37043 ft | 487 kts | 165° |
| 2026-05-07 05:49 | 24.78522 | 46.76127 | 37037 ft | 487 kts | 165° |
| 2026-05-07 05:49 | 24.72262 | 46.79008 | 37024 ft | 488 kts | 164° |
| 2026-05-07 05:50 | 24.66011 | 46.81924 | 37016 ft | 488 kts | 164° |
| 2026-05-07 05:50 | 24.59760 | 46.84853 | 37007 ft | 488 kts | 164° |
| 2026-05-07 05:51 | 24.53507 | 46.87781 | 37002 ft | 488 kts | 164° |
| 2026-05-07 05:51 | 24.47287 | 46.90688 | 37002 ft | 488 kts | 164° |
| 2026-05-07 05:52 | 24.41028 | 46.93610 | 36999 ft | 488 kts | 164° |
| 2026-05-07 05:52 | 24.34775 | 46.96524 | 36994 ft | 489 kts | 164° |
| 2026-05-07 05:53 | 24.28502 | 46.99445 | 36990 ft | 489 kts | 164° |
| 2026-05-07 05:53 | 24.22236 | 47.02361 | 36988 ft | 489 kts | 164° |
| 2026-05-07 05:54 | 24.16005 | 47.05386 | 36979 ft | 494 kts | 158° |
| 2026-05-07 05:54 | 24.10406 | 47.09959 | 36983 ft | 513 kts | 140° |
| 2026-05-07 05:55 | 24.06120 | 47.16327 | 36976 ft | 525 kts | 128° |
| 2026-05-07 05:55 | 24.02260 | 47.23132 | 36977 ft | 527 kts | 127° |
| 2026-05-07 05:56 | 23.98452 | 47.29943 | 36986 ft | 527 kts | 127° |
| 2026-05-07 05:56 | 23.94589 | 47.36752 | 36988 ft | 527 kts | 128° |
| 2026-05-07 05:57 | 23.90696 | 47.43545 | 36989 ft | 527 kts | 128° |
| 2026-05-07 05:57 | 23.86795 | 47.50328 | 36958 ft | 527 kts | 128° |
| 2026-05-07 05:58 | 23.82886 | 47.57117 | 36953 ft | 528 kts | 128° |
| 2026-05-07 05:58 | 23.78979 | 47.63897 | 36949 ft | 528 kts | 128° |
| 2026-05-07 05:59 | 23.75067 | 47.70679 | 36952 ft | 528 kts | 128° |
| 2026-05-07 05:59 | 23.71153 | 47.77455 | 36944 ft | 527 kts | 127° |
| 2026-05-07 06:00 | 23.67235 | 47.84227 | 36944 ft | 527 kts | 128° |
| 2026-05-07 06:00 | 23.63319 | 47.90988 | 36935 ft | 527 kts | 128° |
| 2026-05-07 06:01 | 23.59393 | 47.97758 | 36933 ft | 527 kts | 128° |
| 2026-05-07 06:01 | 23.55494 | 48.04470 | 36926 ft | 527 kts | 127° |
| 2026-05-07 06:02 | 23.51569 | 48.11219 | 36929 ft | 527 kts | 127° |
| 2026-05-07 06:02 | 23.47634 | 48.17978 | 36924 ft | 527 kts | 127° |
| 2026-05-07 06:03 | 23.43700 | 48.24723 | 36915 ft | 527 kts | 127° |
| 2026-05-07 06:03 | 23.39761 | 48.31468 | 36907 ft | 527 kts | 127° |
| 2026-05-07 06:04 | 23.35836 | 48.38192 | 36918 ft | 526 kts | 127° |
| 2026-05-07 06:04 | 23.31905 | 48.44913 | 36912 ft | 526 kts | 127° |
| 2026-05-07 06:05 | 23.27970 | 48.51625 | 36910 ft | 526 kts | 127° |
| 2026-05-07 06:05 | 23.24033 | 48.58335 | 36903 ft | 526 kts | 127° |
| 2026-05-07 06:06 | 23.20107 | 48.65021 | 36912 ft | 525 kts | 127° |
| 2026-05-07 06:06 | 23.16177 | 48.71704 | 36908 ft | 525 kts | 127° |
| 2026-05-07 06:07 | 23.12241 | 48.78387 | 36907 ft | 525 kts | 127° |
| 2026-05-07 06:07 | 23.08307 | 48.85060 | 36894 ft | 524 kts | 127° |
| 2026-05-07 06:08 | 23.04375 | 48.91721 | 36901 ft | 523 kts | 127° |
| 2026-05-07 06:08 | 23.00646 | 48.98460 | 36903 ft | 528 kts | 118° |
| 2026-05-07 06:09 | 22.98461 | 49.06102 | 36902 ft | 534 kts | 105° |
| 2026-05-07 06:09 | 22.97029 | 49.14033 | 36897 ft | 536 kts | 103° |
| 2026-05-07 06:10 | 22.95704 | 49.21985 | 36894 ft | 535 kts | 102° |
| 2026-05-07 06:10 | 22.94358 | 49.29913 | 36893 ft | 533 kts | 103° |
| 2026-05-07 06:11 | 22.92984 | 49.37822 | 36900 ft | 533 kts | 103° |
| 2026-05-07 06:11 | 22.91597 | 49.45722 | 36892 ft | 533 kts | 103° |
| 2026-05-07 06:12 | 22.90205 | 49.53620 | 36891 ft | 533 kts | 103° |
| 2026-05-07 06:12 | 22.88812 | 49.61516 | 36893 ft | 532 kts | 103° |
| 2026-05-07 06:13 | 22.87419 | 49.69386 | 36898 ft | 532 kts | 103° |
| 2026-05-07 06:13 | 22.86024 | 49.77247 | 36883 ft | 530 kts | 103° |
| 2026-05-07 06:14 | 22.84628 | 49.85089 | 36881 ft | 529 kts | 103° |
| 2026-05-07 06:14 | 22.83228 | 49.92930 | 36894 ft | 529 kts | 103° |
| 2026-05-07 06:15 | 22.82061 | 49.99450 | 36885 ft | 529 kts | 103° |
| 2026-05-07 06:15 | 22.80657 | 50.07275 | 36896 ft | 529 kts | 103° |
| 2026-05-07 06:16 | 22.79249 | 50.15094 | 36897 ft | 528 kts | 103° |
| 2026-05-07 06:16 | 22.77835 | 50.22924 | 36888 ft | 528 kts | 103° |
| 2026-05-07 06:17 | 22.76426 | 50.30708 | 36890 ft | 526 kts | 103° |
| 2026-05-07 06:17 | 22.75015 | 50.38477 | 36890 ft | 525 kts | 103° |
| 2026-05-07 06:18 | 22.73599 | 50.46249 | 36890 ft | 525 kts | 103° |
| 2026-05-07 06:18 | 22.72182 | 50.54010 | 36889 ft | 525 kts | 103° |
| 2026-05-07 06:19 | 22.70769 | 50.61720 | 36885 ft | 525 kts | 103° |
| 2026-05-07 06:19 | 22.69345 | 50.69472 | 36882 ft | 525 kts | 103° |
| 2026-05-07 06:20 | 22.67917 | 50.77225 | 36883 ft | 525 kts | 103° |
| 2026-05-07 06:20 | 22.66486 | 50.84975 | 36883 ft | 525 kts | 103° |
| 2026-05-07 06:21 | 22.65051 | 50.92716 | 36880 ft | 525 kts | 103° |
| 2026-05-07 06:21 | 22.63612 | 51.00464 | 36882 ft | 525 kts | 103° |
| 2026-05-07 06:22 | 22.62170 | 51.08206 | 36881 ft | 525 kts | 103° |
| 2026-05-07 06:22 | 22.59990 | 51.19867 | 36880 ft | 525 kts | 103° |
| 2026-05-07 06:23 | 22.58539 | 51.27602 | 36869 ft | 524 kts | 103° |
| 2026-05-07 06:23 | 22.57085 | 51.35332 | 36876 ft | 524 kts | 103° |
| 2026-05-07 06:24 | 22.55640 | 51.42993 | 36874 ft | 524 kts | 103° |
| 2026-05-07 06:24 | 22.54182 | 51.50702 | 36872 ft | 524 kts | 103° |
| 2026-05-07 06:25 | 22.52718 | 51.58425 | 36877 ft | 524 kts | 103° |
| 2026-05-07 06:25 | 22.51251 | 51.66138 | 36872 ft | 524 kts | 103° |
| 2026-05-07 06:26 | 22.49779 | 51.73858 | 36865 ft | 524 kts | 103° |
| 2026-05-07 06:26 | 22.48304 | 51.81571 | 36860 ft | 524 kts | 103° |
| 2026-05-07 06:27 | 22.46827 | 51.89276 | 36868 ft | 523 kts | 103° |
| 2026-05-07 06:27 | 22.45350 | 51.96964 | 36861 ft | 522 kts | 103° |
| 2026-05-07 06:28 | 22.43869 | 52.04644 | 36864 ft | 522 kts | 103° |
| 2026-05-07 06:28 | 22.42383 | 52.12333 | 36862 ft | 522 kts | 103° |
| 2026-05-07 06:29 | 22.40896 | 52.20012 | 36862 ft | 522 kts | 104° |
| 2026-05-07 06:29 | 22.39402 | 52.27697 | 36862 ft | 522 kts | 104° |
| 2026-05-07 06:30 | 22.37907 | 52.35377 | 36862 ft | 522 kts | 104° |
| 2026-05-07 06:30 | 22.36410 | 52.43040 | 36861 ft | 521 kts | 104° |
| 2026-05-07 06:31 | 22.34912 | 52.50691 | 36860 ft | 521 kts | 104° |
| 2026-05-07 06:31 | 22.33410 | 52.58338 | 36860 ft | 521 kts | 104° |
| 2026-05-07 06:32 | 22.31905 | 52.65984 | 36858 ft | 521 kts | 104° |
| 2026-05-07 06:32 | 22.30396 | 52.73629 | 36860 ft | 520 kts | 104° |
| 2026-05-07 06:33 | 22.28884 | 52.81272 | 36859 ft | 520 kts | 104° |
| 2026-05-07 06:33 | 22.27368 | 52.88915 | 36859 ft | 520 kts | 104° |
| 2026-05-07 06:34 | 22.25850 | 52.96544 | 36859 ft | 519 kts | 104° |
| 2026-05-07 06:34 | 22.24332 | 53.04162 | 36860 ft | 518 kts | 104° |
| 2026-05-07 06:35 | 22.22813 | 53.11759 | 36862 ft | 518 kts | 104° |
| 2026-05-07 06:35 | 22.21291 | 53.19356 | 36859 ft | 518 kts | 104° |
| 2026-05-07 06:36 | 22.19765 | 53.26948 | 36861 ft | 518 kts | 104° |
| 2026-05-07 06:36 | 22.18237 | 53.34536 | 36862 ft | 518 kts | 104° |
| 2026-05-07 06:37 | 22.16704 | 53.42123 | 36865 ft | 518 kts | 104° |
| 2026-05-07 06:37 | 22.15168 | 53.49709 | 36860 ft | 517 kts | 104° |
| 2026-05-07 06:38 | 22.13633 | 53.57277 | 36859 ft | 516 kts | 104° |
| 2026-05-07 06:38 | 22.12096 | 53.64833 | 36862 ft | 516 kts | 104° |
| 2026-05-07 06:39 | 22.10555 | 53.72388 | 36862 ft | 516 kts | 104° |
| 2026-05-07 06:39 | 22.09011 | 53.79938 | 36861 ft | 515 kts | 104° |
| 2026-05-07 06:40 | 22.07465 | 53.87482 | 36866 ft | 515 kts | 104° |
| 2026-05-07 06:40 | 22.05914 | 53.95029 | 36871 ft | 515 kts | 104° |
| 2026-05-07 06:41 | 22.04361 | 54.02571 | 36870 ft | 516 kts | 104° |
| 2026-05-07 06:41 | 22.02804 | 54.10109 | 36870 ft | 515 kts | 104° |
| 2026-05-07 06:42 | 22.01247 | 54.17633 | 36873 ft | 514 kts | 104° |
| 2026-05-07 06:42 | 21.99686 | 54.25154 | 36872 ft | 514 kts | 104° |
| 2026-05-07 06:43 | 21.98123 | 54.32671 | 36873 ft | 514 kts | 104° |
| 2026-05-07 06:43 | 21.96556 | 54.40188 | 36876 ft | 514 kts | 104° |
| 2026-05-07 06:44 | 21.94986 | 54.47698 | 36876 ft | 514 kts | 104° |
| 2026-05-07 06:44 | 21.93413 | 54.55206 | 36874 ft | 514 kts | 104° |
| 2026-05-07 06:45 | 21.91835 | 54.62722 | 36878 ft | 514 kts | 104° |
| 2026-05-07 06:45 | 21.90255 | 54.70229 | 36881 ft | 513 kts | 104° |
| 2026-05-07 06:46 | 21.88675 | 54.77719 | 36884 ft | 513 kts | 104° |
| 2026-05-07 06:46 | 21.87090 | 54.85212 | 36884 ft | 513 kts | 104° |
| 2026-05-07 06:47 | 21.85502 | 54.92701 | 36886 ft | 513 kts | 104° |
| 2026-05-07 06:47 | 21.83912 | 55.00186 | 36887 ft | 513 kts | 104° |
| 2026-05-07 06:48 | 21.82317 | 55.07675 | 36884 ft | 513 kts | 104° |
| 2026-05-07 06:48 | 21.80719 | 55.15160 | 36884 ft | 513 kts | 104° |
| 2026-05-07 06:49 | 21.79116 | 55.22650 | 36886 ft | 513 kts | 104° |
| 2026-05-07 06:49 | 21.77512 | 55.30131 | 36893 ft | 513 kts | 104° |
| 2026-05-07 06:50 | 21.75904 | 55.37609 | 36892 ft | 513 kts | 104° |
| 2026-05-07 06:50 | 21.74291 | 55.45094 | 36892 ft | 513 kts | 104° |
| 2026-05-07 06:51 | 21.72676 | 55.52572 | 36890 ft | 513 kts | 104° |
| 2026-05-07 06:51 | 21.71552 | 55.60157 | 36898 ft | 515 kts | 96° |
| 2026-05-07 06:52 | 21.71038 | 55.67849 | 36897 ft | 516 kts | 95° |
| 2026-05-07 06:52 | 21.70613 | 55.75554 | 36900 ft | 516 kts | 95° |
| 2026-05-07 06:53 | 21.70185 | 55.83261 | 36903 ft | 516 kts | 95° |
| 2026-05-07 06:53 | 21.69743 | 55.90965 | 36906 ft | 516 kts | 95° |
| 2026-05-07 06:54 | 21.69285 | 55.98670 | 36904 ft | 516 kts | 95° |
| 2026-05-07 06:54 | 21.68823 | 56.06371 | 36911 ft | 516 kts | 95° |
| 2026-05-07 06:55 | 21.68360 | 56.14073 | 36911 ft | 516 kts | 95° |
| 2026-05-07 06:55 | 21.67972 | 56.20473 | 36911 ft | 516 kts | 95° |
| 2026-05-07 06:56 | 21.67503 | 56.28171 | 36908 ft | 516 kts | 95° |
| 2026-05-07 06:56 | 21.67031 | 56.35868 | 36911 ft | 516 kts | 95° |
| 2026-05-07 06:57 | 21.66555 | 56.43565 | 36914 ft | 516 kts | 95° |
| 2026-05-07 06:57 | 21.66075 | 56.51269 | 36914 ft | 516 kts | 95° |
| 2026-05-07 06:58 | 21.65591 | 56.58969 | 36914 ft | 516 kts | 95° |
| 2026-05-07 06:58 | 21.65104 | 56.66673 | 36919 ft | 517 kts | 95° |
| 2026-05-07 06:59 | 21.64613 | 56.74382 | 36919 ft | 517 kts | 95° |
| 2026-05-07 06:59 | 21.64118 | 56.82089 | 36919 ft | 517 kts | 95° |
| 2026-05-07 07:00 | 21.63620 | 56.89789 | 36926 ft | 517 kts | 95° |
| 2026-05-07 07:00 | 21.63118 | 56.97499 | 36924 ft | 517 kts | 95° |
| 2026-05-07 07:01 | 21.62613 | 57.05208 | 36922 ft | 517 kts | 95° |
| 2026-05-07 07:01 | 21.62104 | 57.12916 | 36920 ft | 517 kts | 95° |
| 2026-05-07 07:02 | 21.61591 | 57.20621 | 36922 ft | 517 kts | 95° |
| 2026-05-07 07:02 | 21.61073 | 57.28326 | 36924 ft | 517 kts | 95° |
| 2026-05-07 07:03 | 21.60552 | 57.36030 | 36926 ft | 517 kts | 95° |
| 2026-05-07 07:03 | 21.60027 | 57.43734 | 36928 ft | 517 kts | 95° |
| 2026-05-07 07:04 | 21.59499 | 57.51434 | 36926 ft | 517 kts | 95° |
| 2026-05-07 07:04 | 21.58968 | 57.59133 | 36927 ft | 517 kts | 95° |
| 2026-05-07 07:05 | 21.58260 | 57.66805 | 36926 ft | 516 kts | 102° |
| 2026-05-07 07:05 | 21.56443 | 57.74248 | 36926 ft | 515 kts | 107° |
| 2026-05-07 07:06 | 21.54382 | 57.81607 | 36923 ft | 514 kts | 108° |
| 2026-05-07 07:06 | 21.52286 | 57.88947 | 36925 ft | 514 kts | 108° |
| 2026-05-07 07:07 | 21.50202 | 57.96285 | 36923 ft | 514 kts | 108° |
| 2026-05-07 07:07 | 21.48126 | 58.03633 | 36923 ft | 514 kts | 108° |
| 2026-05-07 07:08 | 21.46051 | 58.10978 | 36920 ft | 514 kts | 108° |
| 2026-05-07 07:08 | 21.43970 | 58.18327 | 36919 ft | 514 kts | 108° |
| 2026-05-07 07:09 | 21.41886 | 58.25672 | 36917 ft | 515 kts | 108° |
| 2026-05-07 07:09 | 21.39797 | 58.33019 | 36915 ft | 515 kts | 108° |
| 2026-05-07 07:10 | 21.37705 | 58.40363 | 36916 ft | 514 kts | 108° |
| 2026-05-07 07:10 | 21.35613 | 58.47695 | 36917 ft | 513 kts | 108° |
| 2026-05-07 07:11 | 21.33520 | 58.55018 | 36912 ft | 514 kts | 108° |
| 2026-05-07 07:11 | 21.31421 | 58.62348 | 36911 ft | 514 kts | 108° |
| 2026-05-07 07:12 | 21.29319 | 58.69672 | 36914 ft | 514 kts | 108° |
| 2026-05-07 07:12 | 21.27216 | 58.76992 | 36906 ft | 514 kts | 108° |
| 2026-05-07 07:13 | 21.25111 | 58.84318 | 36902 ft | 514 kts | 108° |
| 2026-05-07 07:13 | 21.22998 | 58.91634 | 36903 ft | 514 kts | 108° |
| 2026-05-07 07:14 | 21.20880 | 58.98948 | 36907 ft | 513 kts | 108° |
| 2026-05-07 07:14 | 21.18768 | 59.06238 | 36901 ft | 512 kts | 108° |
| 2026-05-07 07:15 | 21.16655 | 59.13521 | 36903 ft | 512 kts | 108° |
| 2026-05-07 07:15 | 21.14537 | 59.20807 | 36901 ft | 512 kts | 108° |
| 2026-05-07 07:16 | 21.12419 | 59.28084 | 36898 ft | 512 kts | 108° |
| 2026-05-07 07:16 | 21.10294 | 59.35368 | 36898 ft | 512 kts | 108° |
| 2026-05-07 07:17 | 21.08166 | 59.42650 | 36900 ft | 512 kts | 108° |
| 2026-05-07 07:17 | 21.06037 | 59.49924 | 36900 ft | 512 kts | 108° |
| 2026-05-07 07:18 | 21.03904 | 59.57199 | 36898 ft | 512 kts | 108° |
| 2026-05-07 07:18 | 21.01469 | 59.64340 | 36905 ft | 511 kts | 117° |
| 2026-05-07 07:19 | 20.97325 | 59.70460 | 36903 ft | 508 kts | 137° |
| 2026-05-07 07:19 | 20.94601 | 59.72846 | 36902 ft | 506 kts | 148° |
| 2026-05-07 07:19 | 20.91650 | 59.74903 | 36904 ft | 506 kts | 149° |
| 2026-05-07 07:20 | 20.85598 | 59.78777 | 36904 ft | 506 kts | 151° |
| 2026-05-07 07:20 | 20.79520 | 59.82585 | 36906 ft | 506 kts | 150° |
| 2026-05-07 07:21 | 20.73460 | 59.86424 | 36907 ft | 507 kts | 150° |
| 2026-05-07 07:21 | 20.67410 | 59.90287 | 36905 ft | 507 kts | 150° |
| 2026-05-07 07:22 | 20.61343 | 59.94167 | 36909 ft | 508 kts | 150° |
| 2026-05-07 07:22 | 20.55278 | 59.98039 | 36901 ft | 507 kts | 150° |
| 2026-05-07 07:23 | 20.49225 | 60.01902 | 36912 ft | 507 kts | 150° |
| 2026-05-07 07:23 | 20.43179 | 60.05752 | 36912 ft | 506 kts | 150° |
| 2026-05-07 07:24 | 20.37142 | 60.09595 | 36909 ft | 506 kts | 150° |
| 2026-05-07 07:24 | 20.31091 | 60.13442 | 36913 ft | 506 kts | 150° |
| 2026-05-07 07:25 | 20.22024 | 60.19205 | 36914 ft | 506 kts | 150° |
| 2026-05-07 07:26 | 20.15973 | 60.23042 | 36911 ft | 506 kts | 150° |
| 2026-05-07 07:26 | 20.09936 | 60.26869 | 36913 ft | 505 kts | 150° |
| 2026-05-07 07:27 | 20.04077 | 60.30997 | 36921 ft | 506 kts | 141° |
| 2026-05-07 07:27 | 19.98753 | 60.35872 | 36917 ft | 506 kts | 139° |
| 2026-05-07 07:28 | 19.93517 | 60.40873 | 36912 ft | 506 kts | 139° |
| 2026-05-07 07:28 | 19.88285 | 60.45882 | 36917 ft | 506 kts | 139° |
| 2026-05-07 07:29 | 19.83049 | 60.50866 | 36917 ft | 505 kts | 139° |
| 2026-05-07 07:29 | 19.77801 | 60.55845 | 36916 ft | 506 kts | 139° |
| 2026-05-07 07:30 | 19.72548 | 60.60822 | 36916 ft | 505 kts | 139° |
| 2026-05-07 07:30 | 19.67308 | 60.65782 | 36918 ft | 505 kts | 139° |
| 2026-05-07 07:31 | 19.62068 | 60.70741 | 36917 ft | 505 kts | 139° |
| 2026-05-07 07:31 | 19.56819 | 60.75702 | 36915 ft | 506 kts | 139° |
| 2026-05-07 07:32 | 19.51567 | 60.80661 | 36919 ft | 505 kts | 139° |
| 2026-05-07 07:32 | 19.46321 | 60.85611 | 36918 ft | 505 kts | 139° |
| 2026-05-07 07:33 | 19.41065 | 60.90565 | 36917 ft | 506 kts | 140° |
| 2026-05-07 07:33 | 19.35805 | 60.95516 | 36917 ft | 506 kts | 139° |
| 2026-05-07 07:34 | 19.30590 | 61.00423 | 36915 ft | 505 kts | 139° |
| 2026-05-07 07:34 | 19.25340 | 61.05361 | 36916 ft | 505 kts | 140° |
| 2026-05-07 07:35 | 19.20078 | 61.10301 | 36916 ft | 505 kts | 140° |
| 2026-05-07 07:35 | 19.14822 | 61.15229 | 36918 ft | 505 kts | 139° |
| 2026-05-07 07:36 | 19.09571 | 61.20154 | 36917 ft | 505 kts | 139° |
| 2026-05-07 07:36 | 19.04310 | 61.25086 | 36918 ft | 506 kts | 139° |
| 2026-05-07 07:37 | 18.99044 | 61.30011 | 36915 ft | 505 kts | 139° |
| 2026-05-07 07:37 | 18.93796 | 61.34919 | 36919 ft | 504 kts | 140° |
| 2026-05-07 07:38 | 18.89391 | 61.39034 | 36916 ft | 505 kts | 139° |
| 2026-05-07 07:38 | 18.84125 | 61.43950 | 36918 ft | 505 kts | 139° |
| 2026-05-07 07:39 | 18.78863 | 61.48859 | 36919 ft | 504 kts | 139° |
| 2026-05-07 07:39 | 18.73605 | 61.53760 | 36919 ft | 504 kts | 139° |
| 2026-05-07 07:40 | 18.68353 | 61.58652 | 36920 ft | 504 kts | 140° |
| 2026-05-07 07:40 | 18.63097 | 61.63541 | 36919 ft | 504 kts | 139° |
| 2026-05-07 07:41 | 18.57847 | 61.68421 | 36920 ft | 503 kts | 140° |
| 2026-05-07 07:41 | 18.52593 | 61.73301 | 36919 ft | 504 kts | 140° |
| 2026-05-07 07:42 | 18.47330 | 61.78185 | 36921 ft | 503 kts | 140° |
| 2026-05-07 07:42 | 18.42114 | 61.83022 | 36922 ft | 502 kts | 139° |
| 2026-05-07 07:43 | 18.36868 | 61.87882 | 36921 ft | 503 kts | 140° |
| 2026-05-07 07:43 | 18.31614 | 61.92744 | 36922 ft | 503 kts | 139° |
| 2026-05-07 07:44 | 18.26354 | 61.97608 | 36924 ft | 504 kts | 139° |
| 2026-05-07 07:44 | 18.21061 | 62.02499 | 36922 ft | 502 kts | 140° |
| 2026-05-07 07:45 | 18.15811 | 62.07344 | 36923 ft | 502 kts | 139° |
| 2026-05-07 07:45 | 18.10557 | 62.12191 | 36923 ft | 502 kts | 140° |
| 2026-05-07 07:46 | 18.05304 | 62.17035 | 36921 ft | 502 kts | 139° |
| 2026-05-07 07:46 | 18.00054 | 62.21871 | 36923 ft | 502 kts | 140° |
| 2026-05-07 07:47 | 17.94797 | 62.26707 | 36924 ft | 502 kts | 139° |
| 2026-05-07 07:47 | 17.89549 | 62.31532 | 36920 ft | 501 kts | 139° |
| 2026-05-07 07:48 | 17.84301 | 62.36353 | 36922 ft | 501 kts | 140° |
| 2026-05-07 07:48 | 17.79055 | 62.41171 | 36921 ft | 501 kts | 139° |
| 2026-05-07 07:49 | 17.73804 | 62.45985 | 36918 ft | 501 kts | 139° |
| 2026-05-07 07:49 | 17.68553 | 62.50797 | 36916 ft | 501 kts | 139° |
| 2026-05-07 07:50 | 17.63344 | 62.55567 | 36920 ft | 501 kts | 139° |
| 2026-05-07 07:50 | 17.58098 | 62.60367 | 36919 ft | 501 kts | 139° |
| 2026-05-07 07:51 | 17.52849 | 62.65167 | 36917 ft | 501 kts | 140° |
| 2026-05-07 07:51 | 17.47596 | 62.69964 | 36915 ft | 500 kts | 139° |
| 2026-05-07 07:52 | 17.42349 | 62.74754 | 36917 ft | 501 kts | 139° |
| 2026-05-07 07:52 | 17.37098 | 62.79544 | 36917 ft | 501 kts | 140° |
| 2026-05-07 07:53 | 17.31843 | 62.84333 | 36919 ft | 501 kts | 139° |
| 2026-05-07 07:53 | 17.26590 | 62.89117 | 36919 ft | 501 kts | 139° |
| 2026-05-07 07:54 | 17.21335 | 62.93899 | 36918 ft | 501 kts | 140° |
| 2026-05-07 07:54 | 17.16072 | 62.98684 | 36913 ft | 501 kts | 139° |
| 2026-05-07 07:55 | 17.10811 | 63.03464 | 36913 ft | 501 kts | 139° |
| 2026-05-07 07:55 | 17.05557 | 63.08233 | 36915 ft | 501 kts | 139° |
| 2026-05-07 07:56 | 17.00291 | 63.13011 | 36912 ft | 501 kts | 139° |
| 2026-05-07 07:56 | 16.94955 | 63.17695 | 36910 ft | 501 kts | 141° |
| 2026-05-07 07:57 | 16.89571 | 63.22317 | 36910 ft | 501 kts | 141° |
| 2026-05-07 07:57 | 16.84197 | 63.26947 | 36912 ft | 501 kts | 141° |
| 2026-05-07 07:58 | 16.78827 | 63.31592 | 36911 ft | 502 kts | 141° |
| 2026-05-07 07:58 | 16.73457 | 63.36242 | 36911 ft | 501 kts | 141° |
| 2026-05-07 07:59 | 16.68127 | 63.40854 | 36911 ft | 501 kts | 141° |
| 2026-05-07 07:59 | 16.62760 | 63.45494 | 36912 ft | 501 kts | 141° |
| 2026-05-07 08:00 | 16.57390 | 63.50133 | 36912 ft | 502 kts | 141° |
| 2026-05-07 08:00 | 16.52005 | 63.54781 | 36914 ft | 502 kts | 141° |
| 2026-05-07 08:01 | 16.46624 | 63.59420 | 36913 ft | 502 kts | 141° |
| 2026-05-07 08:01 | 16.41247 | 63.64055 | 36910 ft | 502 kts | 141° |
| 2026-05-07 08:02 | 16.35865 | 63.68690 | 36912 ft | 502 kts | 141° |
| 2026-05-07 08:02 | 16.30475 | 63.73328 | 36910 ft | 502 kts | 141° |
| 2026-05-07 08:03 | 16.25094 | 63.77955 | 36909 ft | 502 kts | 141° |
| 2026-05-07 08:03 | 16.19712 | 63.82581 | 36908 ft | 502 kts | 141° |
| 2026-05-07 08:04 | 16.14323 | 63.87208 | 36907 ft | 503 kts | 141° |
| 2026-05-07 08:04 | 16.08929 | 63.91836 | 36906 ft | 502 kts | 141° |
| 2026-05-07 08:05 | 16.03540 | 63.96456 | 36908 ft | 502 kts | 141° |
| 2026-05-07 08:05 | 15.98153 | 64.01072 | 36907 ft | 501 kts | 141° |
| 2026-05-07 08:06 | 15.92777 | 64.05675 | 36907 ft | 501 kts | 141° |
| 2026-05-07 08:06 | 15.87390 | 64.10284 | 36906 ft | 502 kts | 141° |
| 2026-05-07 08:07 | 15.82004 | 64.14888 | 36907 ft | 502 kts | 141° |
| 2026-05-07 08:07 | 15.76617 | 64.19490 | 36903 ft | 501 kts | 141° |
| 2026-05-07 08:08 | 15.71238 | 64.24083 | 36902 ft | 500 kts | 141° |
| 2026-05-07 08:08 | 15.65859 | 64.28672 | 36903 ft | 501 kts | 141° |
| 2026-05-07 08:09 | 15.60479 | 64.33259 | 36904 ft | 500 kts | 141° |
| 2026-05-07 08:09 | 15.55103 | 64.37838 | 36903 ft | 500 kts | 141° |
| 2026-05-07 08:10 | 15.49727 | 64.42415 | 36900 ft | 500 kts | 141° |
| 2026-05-07 08:10 | 15.44344 | 64.46995 | 36901 ft | 500 kts | 141° |
| 2026-05-07 08:11 | 15.38972 | 64.51561 | 36900 ft | 499 kts | 141° |
| 2026-05-07 08:11 | 15.33607 | 64.56120 | 36900 ft | 499 kts | 141° |
| 2026-05-07 08:12 | 15.28234 | 64.60682 | 36900 ft | 499 kts | 141° |
| 2026-05-07 08:12 | 15.22865 | 64.65237 | 36900 ft | 499 kts | 141° |
| 2026-05-07 08:13 | 15.17492 | 64.69792 | 36902 ft | 499 kts | 141° |
| 2026-05-07 08:13 | 15.12125 | 64.74339 | 36900 ft | 498 kts | 141° |
| 2026-05-07 08:14 | 15.06765 | 64.78877 | 36898 ft | 498 kts | 141° |
| 2026-05-07 08:14 | 15.01407 | 64.83411 | 36898 ft | 498 kts | 141° |
| 2026-05-07 08:15 | 14.96085 | 64.87911 | 36896 ft | 497 kts | 141° |
| 2026-05-07 08:15 | 14.90727 | 64.92438 | 36897 ft | 497 kts | 141° |
| 2026-05-07 08:16 | 14.85331 | 64.96994 | 36899 ft | 497 kts | 141° |
| 2026-05-07 08:16 | 14.79976 | 65.01513 | 36892 ft | 497 kts | 141° |
| 2026-05-07 08:17 | 14.74623 | 65.06028 | 36891 ft | 497 kts | 141° |
| 2026-05-07 08:17 | 14.69268 | 65.10540 | 36892 ft | 497 kts | 141° |
| 2026-05-07 08:18 | 14.63910 | 65.15053 | 36892 ft | 497 kts | 141° |
| 2026-05-07 08:18 | 14.58550 | 65.19565 | 37015 ft | 497 kts | 141° |
| 2026-05-07 08:18 | 14.55878 | 65.21813 | 37397 ft | 494 kts | 141° |
| 2026-05-07 08:19 | 14.53222 | 65.24046 | 37795 ft | 491 kts | 141° |
| 2026-05-07 08:19 | 14.50581 | 65.26265 | 38167 ft | 488 kts | 141° |
| 2026-05-07 08:19 | 14.47955 | 65.28469 | 38447 ft | 487 kts | 141° |
| 2026-05-07 08:19 | 14.45323 | 65.30678 | 38619 ft | 488 kts | 141° |
| 2026-05-07 08:20 | 14.43581 | 65.32140 | 38754 ft | 487 kts | 141° |
| 2026-05-07 08:20 | 14.40948 | 65.34349 | 38873 ft | 489 kts | 141° |
| 2026-05-07 08:20 | 14.38308 | 65.36564 | 38887 ft | 489 kts | 141° |
| 2026-05-07 08:21 | 14.33034 | 65.40987 | 38887 ft | 488 kts | 141° |
| 2026-05-07 08:21 | 14.27765 | 65.45402 | 38887 ft | 488 kts | 141° |
| 2026-05-07 08:22 | 14.22504 | 65.49808 | 38885 ft | 487 kts | 141° |
| 2026-05-07 08:22 | 14.17243 | 65.54212 | 38886 ft | 487 kts | 141° |
| 2026-05-07 08:23 | 14.11974 | 65.58620 | 38887 ft | 488 kts | 141° |
| 2026-05-07 08:23 | 14.06708 | 65.63023 | 38886 ft | 488 kts | 141° |
| 2026-05-07 08:24 | 14.01446 | 65.67419 | 38879 ft | 487 kts | 141° |
| 2026-05-07 08:24 | 13.96183 | 65.71813 | 38884 ft | 487 kts | 141° |
| 2026-05-07 08:25 | 13.90917 | 65.76207 | 38884 ft | 488 kts | 141° |
| 2026-05-07 08:25 | 13.85643 | 65.80605 | 38884 ft | 488 kts | 141° |
| 2026-05-07 08:26 | 13.77738 | 65.87192 | 38881 ft | 487 kts | 141° |
| 2026-05-07 08:26 | 13.72476 | 65.91573 | 38881 ft | 487 kts | 141° |
| 2026-05-07 08:27 | 13.67206 | 65.95958 | 38880 ft | 488 kts | 141° |
| 2026-05-07 08:27 | 13.61929 | 66.00348 | 38881 ft | 488 kts | 141° |
| 2026-05-07 08:28 | 13.56659 | 66.04729 | 38882 ft | 487 kts | 141° |
| 2026-05-07 08:28 | 13.51394 | 66.09103 | 38880 ft | 486 kts | 141° |
| 2026-05-07 08:29 | 13.46136 | 66.13468 | 38881 ft | 487 kts | 141° |
| 2026-05-07 08:29 | 13.40868 | 66.17839 | 38878 ft | 487 kts | 141° |
| 2026-05-07 08:30 | 13.35588 | 66.22218 | 38878 ft | 487 kts | 141° |
| 2026-05-07 08:30 | 13.30322 | 66.26582 | 38878 ft | 486 kts | 141° |
| 2026-05-07 08:31 | 13.25062 | 66.30938 | 38875 ft | 486 kts | 141° |
| 2026-05-07 08:31 | 13.19790 | 66.35304 | 38876 ft | 487 kts | 141° |
| 2026-05-07 08:32 | 13.14513 | 66.39669 | 38876 ft | 488 kts | 141° |
| 2026-05-07 08:32 | 13.09229 | 66.44039 | 38877 ft | 487 kts | 141° |
| 2026-05-07 08:33 | 13.03949 | 66.48402 | 38874 ft | 487 kts | 142° |
| 2026-05-07 08:33 | 12.98689 | 66.52747 | 38872 ft | 485 kts | 141° |
| 2026-05-07 08:34 | 12.93430 | 66.57088 | 38873 ft | 486 kts | 142° |
| 2026-05-07 08:34 | 12.88153 | 66.61441 | 38874 ft | 488 kts | 141° |
| 2026-05-07 08:35 | 12.82869 | 66.65798 | 38871 ft | 487 kts | 141° |
| 2026-05-07 08:35 | 12.77588 | 66.70151 | 38872 ft | 487 kts | 141° |
| 2026-05-07 08:36 | 12.72316 | 66.74494 | 38871 ft | 485 kts | 141° |
| 2026-05-07 08:36 | 12.67055 | 66.78825 | 38868 ft | 485 kts | 141° |
| 2026-05-07 08:37 | 12.61786 | 66.83160 | 38873 ft | 487 kts | 141° |
| 2026-05-07 08:37 | 12.56512 | 66.87496 | 38867 ft | 485 kts | 142° |
| 2026-05-07 08:38 | 12.51239 | 66.91829 | 38867 ft | 486 kts | 141° |
| 2026-05-07 08:38 | 12.45964 | 66.96162 | 38867 ft | 487 kts | 141° |
| 2026-05-07 08:39 | 12.40683 | 67.00498 | 38867 ft | 485 kts | 141° |
| 2026-05-07 08:39 | 12.35420 | 67.04816 | 38867 ft | 485 kts | 141° |
| 2026-05-07 08:40 | 12.30153 | 67.09136 | 38866 ft | 485 kts | 141° |
| 2026-05-07 08:40 | 12.24892 | 67.13448 | 38867 ft | 484 kts | 141° |
| 2026-05-07 08:41 | 12.19646 | 67.17746 | 38861 ft | 482 kts | 141° |
| 2026-05-07 08:41 | 12.14432 | 67.22015 | 38864 ft | 484 kts | 141° |
| 2026-05-07 08:42 | 12.09144 | 67.26342 | 38861 ft | 484 kts | 141° |
| 2026-05-07 08:42 | 12.03888 | 67.30641 | 38863 ft | 483 kts | 141° |
| 2026-05-07 08:43 | 11.98644 | 67.34927 | 38863 ft | 483 kts | 141° |
| 2026-05-07 08:43 | 11.93406 | 67.39211 | 38860 ft | 482 kts | 141° |
| 2026-05-07 08:44 | 11.88174 | 67.43486 | 38859 ft | 483 kts | 141° |
| 2026-05-07 08:44 | 11.82933 | 67.47763 | 38861 ft | 483 kts | 141° |
| 2026-05-07 08:45 | 11.77679 | 67.52051 | 38860 ft | 483 kts | 141° |
| 2026-05-07 08:45 | 11.72437 | 67.56326 | 38859 ft | 483 kts | 141° |
| 2026-05-07 08:46 | 11.67187 | 67.60607 | 38858 ft | 483 kts | 141° |
| 2026-05-07 08:46 | 11.61940 | 67.64883 | 38858 ft | 483 kts | 141° |
| 2026-05-07 08:47 | 11.56686 | 67.69163 | 38859 ft | 483 kts | 141° |
| 2026-05-07 08:47 | 11.51435 | 67.73438 | 38859 ft | 484 kts | 141° |
| 2026-05-07 08:48 | 11.46178 | 67.77715 | 38861 ft | 483 kts | 141° |
| 2026-05-07 08:48 | 11.40926 | 67.81987 | 38865 ft | 483 kts | 141° |
| 2026-05-07 08:49 | 11.35677 | 67.86254 | 38867 ft | 483 kts | 141° |
| 2026-05-07 08:49 | 11.30426 | 67.90520 | 38863 ft | 483 kts | 141° |
| 2026-05-07 08:50 | 11.25173 | 67.94786 | 38865 ft | 483 kts | 141° |
| 2026-05-07 08:50 | 11.19914 | 67.99055 | 38864 ft | 483 kts | 141° |
| 2026-05-07 08:51 | 11.14658 | 68.03320 | 38866 ft | 484 kts | 141° |
| 2026-05-07 08:51 | 11.09383 | 68.07598 | 38865 ft | 484 kts | 141° |
| 2026-05-07 08:52 | 11.04112 | 68.11871 | 38862 ft | 485 kts | 141° |
| 2026-05-07 08:52 | 10.98839 | 68.16143 | 38863 ft | 485 kts | 141° |
| 2026-05-07 08:53 | 10.93561 | 68.20417 | 38863 ft | 485 kts | 141° |
| 2026-05-07 08:53 | 10.88284 | 68.24689 | 38864 ft | 485 kts | 141° |
| 2026-05-07 08:54 | 10.83009 | 68.28956 | 38862 ft | 484 kts | 141° |
| 2026-05-07 08:54 | 10.77731 | 68.33224 | 38865 ft | 484 kts | 141° |
| 2026-05-07 08:55 | 10.72455 | 68.37489 | 38865 ft | 485 kts | 141° |
| 2026-05-07 08:55 | 10.67176 | 68.41754 | 38864 ft | 485 kts | 141° |
| 2026-05-07 08:56 | 10.61896 | 68.46018 | 38864 ft | 485 kts | 141° |
| 2026-05-07 08:56 | 10.56650 | 68.50253 | 38865 ft | 485 kts | 141° |
| 2026-05-07 08:57 | 10.51370 | 68.54512 | 38865 ft | 485 kts | 141° |
| 2026-05-07 08:57 | 10.46086 | 68.58774 | 38864 ft | 485 kts | 141° |
| 2026-05-07 08:58 | 10.40800 | 68.63036 | 38865 ft | 485 kts | 141° |
| 2026-05-07 08:58 | 10.35507 | 68.67300 | 38865 ft | 486 kts | 141° |
| 2026-05-07 08:59 | 10.30216 | 68.71562 | 38865 ft | 486 kts | 141° |
| 2026-05-07 08:59 | 10.24923 | 68.75822 | 38862 ft | 486 kts | 141° |
| 2026-05-07 09:00 | 10.19629 | 68.80082 | 38865 ft | 485 kts | 141° |
| 2026-05-07 09:00 | 10.14345 | 68.84332 | 38865 ft | 485 kts | 141° |
| 2026-05-07 09:01 | 10.09053 | 68.88587 | 38856 ft | 485 kts | 141° |
| 2026-05-07 09:01 | 10.03756 | 68.92845 | 38856 ft | 487 kts | 141° |
| 2026-05-07 09:02 | 9.99308 | 68.96417 | 38857 ft | 486 kts | 141° |
| 2026-05-07 09:02 | 9.94003 | 69.00678 | 38854 ft | 486 kts | 141° |
| 2026-05-07 09:03 | 9.88704 | 69.04930 | 38854 ft | 485 kts | 141° |
| 2026-05-07 09:03 | 9.83405 | 69.09183 | 38853 ft | 486 kts | 141° |
| 2026-05-07 09:04 | 9.78103 | 69.13436 | 38853 ft | 486 kts | 141° |
| 2026-05-07 09:04 | 9.72789 | 69.17696 | 38854 ft | 487 kts | 141° |
| 2026-05-07 09:05 | 9.67475 | 69.21953 | 38855 ft | 487 kts | 141° |
| 2026-05-07 09:05 | 9.62154 | 69.26208 | 38853 ft | 488 kts | 141° |
| 2026-05-07 09:06 | 9.56827 | 69.30468 | 38853 ft | 487 kts | 141° |
| 2026-05-07 09:06 | 9.51514 | 69.34713 | 38853 ft | 486 kts | 141° |
| 2026-05-07 09:07 | 9.46209 | 69.38954 | 38853 ft | 485 kts | 140° |
| 2026-05-07 09:07 | 9.40905 | 69.43193 | 38848 ft | 486 kts | 141° |
| 2026-05-07 09:08 | 9.35597 | 69.47433 | 38846 ft | 486 kts | 140° |
| 2026-05-07 09:08 | 9.30290 | 69.51670 | 38845 ft | 486 kts | 141° |
| 2026-05-07 09:09 | 9.24982 | 69.55905 | 38846 ft | 486 kts | 140° |
| 2026-05-07 09:09 | 9.19713 | 69.60107 | 38843 ft | 485 kts | 140° |
| 2026-05-07 09:10 | 9.14410 | 69.64336 | 38844 ft | 485 kts | 140° |
| 2026-05-07 09:10 | 9.09072 | 69.68590 | 38840 ft | 485 kts | 140° |
| 2026-05-07 09:11 | 9.03763 | 69.72820 | 38841 ft | 486 kts | 140° |
| 2026-05-07 09:11 | 8.98493 | 69.77017 | 38840 ft | 485 kts | 140° |
| 2026-05-07 09:12 | 8.93189 | 69.81240 | 38835 ft | 485 kts | 140° |
| 2026-05-07 09:12 | 8.87886 | 69.85460 | 38835 ft | 485 kts | 140° |
| 2026-05-07 09:13 | 8.82583 | 69.89679 | 38837 ft | 485 kts | 140° |
| 2026-05-07 09:13 | 8.77279 | 69.93896 | 38831 ft | 485 kts | 140° |
| 2026-05-07 09:14 | 8.71973 | 69.98114 | 38829 ft | 485 kts | 140° |
| 2026-05-07 09:14 | 8.66664 | 70.02333 | 38829 ft | 485 kts | 140° |
| 2026-05-07 09:15 | 8.61358 | 70.06548 | 38829 ft | 485 kts | 140° |
| 2026-05-07 09:15 | 8.56051 | 70.10761 | 38829 ft | 485 kts | 140° |
| 2026-05-07 09:16 | 8.50746 | 70.14972 | 38829 ft | 485 kts | 140° |
| 2026-05-07 09:16 | 8.45433 | 70.19187 | 38828 ft | 486 kts | 140° |
| 2026-05-07 09:17 | 8.40122 | 70.23400 | 38825 ft | 484 kts | 140° |
| 2026-05-07 09:17 | 8.34825 | 70.27600 | 38827 ft | 484 kts | 141° |
| 2026-05-07 09:18 | 8.29528 | 70.31798 | 38824 ft | 484 kts | 140° |
| 2026-05-07 09:18 | 8.24237 | 70.35990 | 38824 ft | 484 kts | 140° |
| 2026-05-07 09:19 | 8.18943 | 70.40183 | 38825 ft | 484 kts | 140° |
| 2026-05-07 09:19 | 8.13644 | 70.44379 | 38826 ft | 484 kts | 140° |
| 2026-05-07 09:20 | 8.08344 | 70.48574 | 38823 ft | 484 kts | 140° |
| 2026-05-07 09:20 | 8.03044 | 70.52768 | 38823 ft | 484 kts | 140° |
| 2026-05-07 09:21 | 7.97742 | 70.56961 | 38821 ft | 483 kts | 140° |
| 2026-05-07 09:21 | 7.92461 | 70.61137 | 38820 ft | 482 kts | 140° |
| 2026-05-07 09:22 | 7.87183 | 70.65309 | 38826 ft | 482 kts | 140° |
| 2026-05-07 09:22 | 7.81911 | 70.69475 | 38822 ft | 481 kts | 140° |
| 2026-05-07 09:23 | 7.76640 | 70.73638 | 38817 ft | 481 kts | 140° |
| 2026-05-07 09:23 | 7.71371 | 70.77799 | 38821 ft | 481 kts | 140° |
| 2026-05-07 09:24 | 7.66102 | 70.81959 | 38814 ft | 481 kts | 140° |
| 2026-05-07 09:24 | 7.60827 | 70.86120 | 38819 ft | 481 kts | 140° |
| 2026-05-07 09:25 | 7.55557 | 70.90277 | 38813 ft | 481 kts | 140° |
| 2026-05-07 09:25 | 7.50285 | 70.94435 | 38817 ft | 481 kts | 140° |
| 2026-05-07 09:26 | 7.45016 | 70.98588 | 38815 ft | 481 kts | 140° |
| 2026-05-07 09:26 | 7.39741 | 71.02737 | 38811 ft | 481 kts | 140° |
| 2026-05-07 09:27 | 7.34466 | 71.06887 | 38812 ft | 481 kts | 140° |
| 2026-05-07 09:28 | 7.26555 | 71.13110 | 38812 ft | 481 kts | 140° |
| 2026-05-07 09:28 | 7.21280 | 71.17257 | 38814 ft | 481 kts | 140° |
| 2026-05-07 09:29 | 7.15999 | 71.21409 | 38812 ft | 482 kts | 140° |
| 2026-05-07 09:29 | 7.10707 | 71.25567 | 38817 ft | 483 kts | 140° |
| 2026-05-07 09:30 | 7.05416 | 71.29724 | 38812 ft | 483 kts | 140° |
| 2026-05-07 09:30 | 7.00119 | 71.33884 | 38812 ft | 483 kts | 140° |
| 2026-05-07 09:31 | 6.94822 | 71.38042 | 38814 ft | 483 kts | 140° |
| 2026-05-07 09:31 | 6.89528 | 71.42198 | 38812 ft | 483 kts | 140° |
| 2026-05-07 09:32 | 6.84229 | 71.46356 | 38809 ft | 483 kts | 141° |
| 2026-05-07 09:32 | 6.78919 | 71.50522 | 38809 ft | 485 kts | 141° |
| 2026-05-07 09:33 | 6.73598 | 71.54694 | 38809 ft | 485 kts | 141° |
| 2026-05-07 09:33 | 6.68280 | 71.58863 | 38810 ft | 483 kts | 141° |
| 2026-05-07 09:34 | 6.62980 | 71.63018 | 38810 ft | 483 kts | 141° |
| 2026-05-07 09:34 | 6.57686 | 71.67166 | 38810 ft | 482 kts | 141° |
| 2026-05-07 09:35 | 6.52390 | 71.71314 | 38811 ft | 482 kts | 141° |
| 2026-05-07 09:35 | 6.47094 | 71.75462 | 38807 ft | 483 kts | 141° |
| 2026-05-07 09:36 | 6.41786 | 71.79618 | 38813 ft | 484 kts | 141° |
| 2026-05-07 09:36 | 6.36369 | 71.83652 | 38810 ft | 485 kts | 148° |
| 2026-05-07 09:37 | 6.30497 | 71.87003 | 38812 ft | 485 kts | 150° |
| 2026-05-07 09:37 | 6.24590 | 71.90294 | 38810 ft | 485 kts | 149° |
| 2026-05-07 09:38 | 6.18681 | 71.93594 | 38802 ft | 487 kts | 149° |
| 2026-05-07 09:38 | 6.12758 | 71.96905 | 38810 ft | 487 kts | 149° |
| 2026-05-07 09:39 | 6.06826 | 72.00220 | 38806 ft | 488 kts | 149° |
| 2026-05-07 09:39 | 6.00891 | 72.03536 | 38805 ft | 488 kts | 149° |
| 2026-05-07 09:40 | 5.94958 | 72.06850 | 38808 ft | 488 kts | 149° |
| 2026-05-07 09:40 | 5.89020 | 72.10166 | 38809 ft | 488 kts | 149° |
| 2026-05-07 09:41 | 5.83086 | 72.13484 | 38802 ft | 488 kts | 149° |
| 2026-05-07 09:41 | 5.77143 | 72.16794 | 38809 ft | 489 kts | 149° |
| 2026-05-07 09:42 | 5.71184 | 72.20115 | 38809 ft | 490 kts | 149° |
| 2026-05-07 09:42 | 5.65223 | 72.23437 | 38806 ft | 490 kts | 149° |
| 2026-05-07 09:43 | 5.60266 | 72.26200 | 38809 ft | 490 kts | 149° |
| 2026-05-07 09:43 | 5.54293 | 72.29529 | 38807 ft | 491 kts | 149° |
| 2026-05-07 09:44 | 5.48316 | 72.32858 | 38807 ft | 491 kts | 149° |
| 2026-05-07 09:44 | 5.42339 | 72.36186 | 38808 ft | 492 kts | 149° |
| 2026-05-07 09:45 | 5.36342 | 72.39526 | 38801 ft | 493 kts | 149° |
| 2026-05-07 09:45 | 5.30346 | 72.42864 | 38690 ft | 489 kts | 149° |
| 2026-05-07 09:45 | 5.27310 | 72.44356 | 38178 ft | 487 kts | 159° |
| 2026-05-07 09:46 | 5.24002 | 72.45118 | 37257 ft | 492 kts | 174° |
| 2026-05-07 09:46 | 5.20568 | 72.44983 | 36369 ft | 498 kts | 189° |
| 2026-05-07 09:46 | 5.17250 | 72.43955 | 35537 ft | 502 kts | 204° |
| 2026-05-07 09:46 | 5.14050 | 72.42548 | 34711 ft | 503 kts | 199° |
| 2026-05-07 09:47 | 5.10647 | 72.41790 | 33981 ft | 501 kts | 182° |
| 2026-05-07 09:47 | 5.07174 | 72.41969 | 33459 ft | 502 kts | 167° |
| 2026-05-07 09:47 | 5.03861 | 72.43040 | 32914 ft | 500 kts | 152° |
| 2026-05-07 09:47 | 5.00942 | 72.44903 | 32199 ft | 497 kts | 138° |
| 2026-05-07 09:48 | 4.98443 | 72.47279 | 31373 ft | 496 kts | 135° |
| 2026-05-07 09:48 | 4.95910 | 72.49553 | 30798 ft | 493 kts | 141° |
| 2026-05-07 09:48 | 4.93185 | 72.51587 | 30228 ft | 488 kts | 143° |
| 2026-05-07 09:48 | 4.90378 | 72.53543 | 29265 ft | 492 kts | 145° |
| 2026-05-07 09:49 | 4.87562 | 72.55465 | 28578 ft | 488 kts | 145° |
| 2026-05-07 09:49 | 4.84763 | 72.57364 | 27927 ft | 482 kts | 145° |
| 2026-05-07 09:49 | 4.82002 | 72.59237 | 27305 ft | 477 kts | 145° |
| 2026-05-07 09:49 | 4.79264 | 72.61091 | 26705 ft | 472 kts | 145° |
| 2026-05-07 09:50 | 4.76554 | 72.62926 | 26120 ft | 468 kts | 146° |
| 2026-05-07 09:50 | 4.73868 | 72.64744 | 25538 ft | 464 kts | 146° |
| 2026-05-07 09:50 | 4.71202 | 72.66548 | 24936 ft | 460 kts | 146° |
| 2026-05-07 09:50 | 4.68559 | 72.68336 | 24356 ft | 457 kts | 146° |
| 2026-05-07 09:51 | 4.65933 | 72.70112 | 23769 ft | 454 kts | 146° |
| 2026-05-07 09:51 | 4.63321 | 72.71878 | 23167 ft | 452 kts | 147° |
| 2026-05-07 09:51 | 4.60728 | 72.73631 | 22541 ft | 448 kts | 147° |
| 2026-05-07 09:51 | 4.58155 | 72.75370 | 21966 ft | 444 kts | 147° |
| 2026-05-07 09:52 | 4.55569 | 72.77117 | 21380 ft | 442 kts | 147° |
| 2026-05-07 09:52 | 4.53028 | 72.78835 | 20796 ft | 439 kts | 146° |
| 2026-05-07 09:52 | 4.50511 | 72.80535 | 20241 ft | 435 kts | 147° |
| 2026-05-07 09:52 | 4.48008 | 72.82227 | 19661 ft | 432 kts | 146° |
| 2026-05-07 09:53 | 4.45519 | 72.83909 | 19086 ft | 430 kts | 147° |
| 2026-05-07 09:53 | 4.43044 | 72.85579 | 18514 ft | 428 kts | 146° |
| 2026-05-07 09:53 | 4.40577 | 72.87246 | 17892 ft | 427 kts | 147° |
| 2026-05-07 09:53 | 4.38117 | 72.88908 | 17274 ft | 425 kts | 147° |
| 2026-05-07 09:54 | 4.35681 | 72.90554 | 16676 ft | 421 kts | 147° |
| 2026-05-07 09:54 | 4.33259 | 72.92190 | 16078 ft | 418 kts | 147° |
| 2026-05-07 09:54 | 4.30855 | 72.93814 | 15488 ft | 415 kts | 147° |
| 2026-05-07 09:54 | 4.28469 | 72.95426 | 14904 ft | 412 kts | 147° |
| 2026-05-07 09:55 | 4.26098 | 72.97027 | 14308 ft | 410 kts | 147° |
| 2026-05-07 09:55 | 4.23736 | 72.98622 | 13715 ft | 408 kts | 147° |
| 2026-05-07 09:55 | 4.21388 | 73.00207 | 13066 ft | 405 kts | 147° |
| 2026-05-07 09:55 | 4.19093 | 73.01756 | 12455 ft | 401 kts | 147° |
| 2026-05-07 09:56 | 4.16803 | 73.03302 | 12023 ft | 393 kts | 147° |
| 2026-05-07 09:56 | 4.14544 | 73.04826 | 11483 ft | 389 kts | 147° |
| 2026-05-07 09:56 | 4.12338 | 73.06316 | 11243 ft | 374 kts | 147° |
| 2026-05-07 09:56 | 4.10232 | 73.07737 | 11108 ft | 356 kts | 147° |
| 2026-05-07 09:57 | 4.08229 | 73.09090 | 10994 ft | 340 kts | 147° |
| 2026-05-07 09:57 | 4.06314 | 73.10382 | 10850 ft | 324 kts | 147° |
| 2026-05-07 09:57 | 4.04484 | 73.11618 | 10742 ft | 310 kts | 147° |
| 2026-05-07 09:57 | 4.02732 | 73.12800 | 10613 ft | 298 kts | 147° |
| 2026-05-07 09:58 | 4.01041 | 73.13941 | 10464 ft | 288 kts | 147° |
| 2026-05-07 09:58 | 3.99385 | 73.15058 | 10167 ft | 288 kts | 147° |
| 2026-05-07 09:58 | 3.97718 | 73.16182 | 9852 ft | 291 kts | 147° |
| 2026-05-07 09:58 | 3.96087 | 73.17483 | 9697 ft | 306 kts | 134° |
| 2026-05-07 09:59 | 3.95009 | 73.19289 | 9253 ft | 304 kts | 105° |
| 2026-05-07 09:59 | 3.94777 | 73.21379 | 8783 ft | 303 kts | 89° |
| 2026-05-07 09:59 | 3.94796 | 73.23472 | 8417 ft | 302 kts | 88° |
| 2026-05-07 09:59 | 3.94824 | 73.25589 | 8081 ft | 302 kts | 88° |
| 2026-05-07 10:00 | 3.94841 | 73.27691 | 7743 ft | 300 kts | 88° |
| 2026-05-07 10:00 | 3.94851 | 73.29773 | 7412 ft | 298 kts | 89° |
| 2026-05-07 10:00 | 3.94860 | 73.31844 | 7075 ft | 297 kts | 88° |
| 2026-05-07 10:00 | 3.94869 | 73.33911 | 6741 ft | 296 kts | 89° |
| 2026-05-07 10:01 | 3.94876 | 73.35969 | 6407 ft | 294 kts | 89° |
| 2026-05-07 10:01 | 3.94882 | 73.38012 | 6051 ft | 292 kts | 89° |
| 2026-05-07 10:01 | 3.94886 | 73.40045 | 5701 ft | 292 kts | 89° |
| 2026-05-07 10:01 | 3.94891 | 73.42079 | 5481 ft | 292 kts | 89° |
| 2026-05-07 10:02 | 3.94894 | 73.44104 | 5148 ft | 289 kts | 89° |
| 2026-05-07 10:02 | 3.94894 | 73.46112 | 4846 ft | 288 kts | 88° |
| 2026-05-07 10:02 | 3.94896 | 73.48120 | 4596 ft | 287 kts | 89° |
| 2026-05-07 10:02 | 3.94902 | 73.50079 | 4420 ft | 275 kts | 88° |
| 2026-05-07 10:03 | 3.95318 | 73.51883 | 4190 ft | 261 kts | 58° |
| 2026-05-07 10:03 | 3.96559 | 73.53078 | 3981 ft | 242 kts | 21° |
| 2026-05-07 10:03 | 3.98152 | 73.53368 | 3678 ft | 230 kts | 356° |
| 2026-05-07 10:03 | 3.99704 | 73.53126 | 3325 ft | 222 kts | 348° |
| 2026-05-07 10:04 | 4.01203 | 73.53069 | 3115 ft | 208 kts | 358° |
| 2026-05-07 10:04 | 4.02584 | 73.53112 | 3012 ft | 192 kts | 357° |
| 2026-05-07 10:04 | 4.03896 | 73.53114 | 2788 ft | 186 kts | 355° |
| 2026-05-07 10:04 | 4.05178 | 73.53102 | 2516 ft | 183 kts | 355° |
| 2026-05-07 10:05 | 4.06420 | 73.53104 | 2281 ft | 173 kts | 356° |
| 2026-05-07 10:05 | 4.07581 | 73.53107 | 2070 ft | 162 kts | 355° |
| 2026-05-07 10:05 | 4.08682 | 73.53106 | 1859 ft | 154 kts | 355° |
| 2026-05-07 10:05 | 4.09723 | 73.53106 | 1656 ft | 145 kts | 355° |
| 2026-05-07 10:06 | 4.10716 | 73.53108 | 1460 ft | 141 kts | 354° |
| 2026-05-07 10:06 | 4.11702 | 73.53110 | 1303 ft | 143 kts | 355° |
| 2026-05-07 10:06 | 4.12696 | 73.53112 | 1115 ft | 142 kts | 354° |
| 2026-05-07 10:06 | 4.13682 | 73.53106 | 932 ft | 141 kts | 353° |
| 2026-05-07 10:07 | 4.14657 | 73.53093 | 753 ft | 138 kts | 353° |
| 2026-05-07 10:07 | 4.15620 | 73.53099 | 596 ft | 140 kts | 356° |
| 2026-05-07 10:07 | 4.16610 | 73.53105 | 417 ft | 144 kts | 356° |
| 2026-05-07 10:07 | 4.17600 | 73.53096 | 234 ft | 140 kts | 356° |
| 2026-05-07 10:08 | 4.18556 | 73.53109 | 48 ft | 135 kts | 356° |
| 2026-05-07 10:08 | 4.19433 | 73.53099 | 18 ft | 110 kts | 359° |
| 2026-05-07 10:08 | 4.20096 | 73.53101 | 18 ft | 82 kts | 360° |
| 2026-05-07 10:08 | 4.20588 | 73.53099 | 18 ft | 59 kts | 0° |
| 2026-05-07 10:09 | 4.20919 | 73.53101 | 18 ft | 36 kts | 0° |
| 2026-05-07 10:09 | 4.21087 | 73.53101 | 20 ft | 12 kts | 360° |
| 2026-05-07 10:09 | 4.21163 | 73.53100 | 18 ft | 12 kts | 360° |
| 2026-05-07 10:09 | 4.21238 | 73.53069 | 18 ft | 12 kts | 294° |
| 2026-05-07 10:10 | 4.21202 | 73.52998 | 18 ft | 13 kts | 210° |
| 2026-05-07 10:10 | 4.21086 | 73.52965 | 18 ft | 23 kts | 194° |
| 2026-05-07 10:10 | 4.20938 | 73.52970 | 18 ft | 22 kts | 120° |
| 2026-05-07 10:10 | 4.20880 | 73.53098 | 18 ft | 21 kts | 163° |
| 2026-05-07 10:11 | 4.20708 | 73.53100 | 18 ft | 31 kts | 180° |
| 2026-05-07 10:11 | 4.20455 | 73.53100 | 21 ft | 42 kts | 179° |
| 2026-05-07 10:11 | 4.20135 | 73.53100 | 18 ft | 50 kts | 180° |
| 2026-05-07 10:11 | 4.19769 | 73.53100 | 18 ft | 53 kts | 180° |
| 2026-05-07 10:12 | 4.19398 | 73.53099 | 18 ft | 53 kts | 179° |
| 2026-05-07 10:12 | 4.19064 | 73.53101 | 18 ft | 42 kts | 180° |
| 2026-05-07 10:12 | 4.18811 | 73.53102 | 18 ft | 32 kts | 180° |
| 2026-05-07 10:12 | 4.18618 | 73.53102 | 18 ft | 19 kts | 180° |
| 2026-05-07 10:13 | 4.18549 | 73.53039 | 18 ft | 15 kts | 264° |
| 2026-05-07 10:13 | 4.18548 | 73.52966 | 18 ft | 6 kts | 276° |
| 2026-05-07 10:13 | 4.18574 | 73.52930 | 18 ft | 7 kts | 333° |
| 2026-05-07 10:13 | 4.18601 | 73.52898 | 18 ft | 0 kts | 287° |
| 2026-05-07 10:14 | 4.18600 | 73.52882 | 18 ft | 5 kts | 259° |
| 2026-05-07 10:15 | 4.18568 | 73.52862 | 20 ft | 6 kts | 194° |
| 2026-05-07 10:15 | 4.18514 | 73.52857 | 18 ft | 9 kts | 180° |
| 2026-05-07 10:15 | 4.18474 | 73.52851 | 18 ft | 3 kts | 215° |
| 2026-05-07 10:15 | 4.18464 | 73.52830 | 18 ft | 4 kts | 255° |
| 2026-05-07 10:16 | 4.18461 | 73.52801 | 18 ft | 3 kts | 266° |
| 2026-05-07 10:16 | 4.18461 | 73.52791 | 18 ft | 0 kts | 268° |